Observation data for Crane on 02/24/2021      Previous  Date  Next       Current Mesonet Observations  Soil Data  Daily Summary Page  Observations in Plain Language
KCR2 240600Z 20010KT 15/10 A2993 RMK A01 T01510101  RH  072%=      5-min Rain = 0
KCR2 240601Z 19011KT 15/10 A2993 RMK A01 T01510101  RH  072%=      5-min Rain = 0
KCR2 240602Z 19012KT 15/10 A2993 RMK A01 T01510101  RH  072%=      5-min Rain = 0
KCR2 240603Z 20011KT 15/10 A2993 RMK A01 T01510101  RH  072%=      5-min Rain = 0
KCR2 240604Z 20010KT 15/10 A2993 RMK A01 T01520101  RH  072%=      5-min Rain = 0
KCR2 240605Z 20009KT 15/10 A2993 RMK A01 T01520101  RH  072%=      5-min Rain = 0
KCR2 240606Z 20010KT 15/10 A2993 RMK A01 T01520102  RH  072%=      5-min Rain = 0
KCR2 240607Z 20009KT 15/10 A2993 RMK A01 T01530102  RH  071%=      5-min Rain = 0
KCR2 240608Z 20009KT 15/10 A2993 RMK A01 T01540102  RH  071%=      5-min Rain = 0
KCR2 240609Z 20009KT 15/10 A2993 RMK A01 T01530101  RH  071%=      5-min Rain = 0
KCR2 240610Z 20009KT 15/10 A2993 RMK A01 T01520101  RH  072%=      5-min Rain = 0
KCR2 240611Z 21008KT 15/10 A2993 RMK A01 T01520101  RH  072%=      5-min Rain = 0
KCR2 240612Z 20009KT 15/10 A2993 RMK A01 T01500101  RH  072%=      5-min Rain = 0
KCR2 240613Z 20009KT 15/10 A2993 RMK A01 T01500102  RH  073%=      5-min Rain = 0
KCR2 240614Z 20009KT 15/10 A2993 RMK A01 T01510102  RH  072%=      5-min Rain = 0
KCR2 240615Z 20009KT 15/10 A2993 RMK A01 T01510102  RH  072%=      5-min Rain = 0
KCR2 240616Z 20010KT 15/10 A2993 RMK A01 T01500102  RH  073%=      5-min Rain = 0
KCR2 240617Z 20010KT 15/10 A2993 RMK A01 T01510103  RH  073%=      5-min Rain = 0
KCR2 240618Z 20010KT 15/10 A2993 RMK A01 T01510102  RH  073%=      5-min Rain = 0
KCR2 240619Z 20010KT 15/10 A2993 RMK A01 T01510102  RH  073%=      5-min Rain = 0
KCR2 240620Z 21009KT 15/10 A2993 RMK A01 T01510102  RH  073%=      5-min Rain = 0
KCR2 240621Z 20009KT 15/10 A2993 RMK A01 T01500102  RH  073%=      5-min Rain = 0
KCR2 240622Z 20009KT 15/10 A2993 RMK A01 T01490101  RH  073%=      5-min Rain = 0
KCR2 240623Z 20012KT 15/10 A2993 RMK A01 T01490103  RH  074%=      5-min Rain = 0
KCR2 240624Z 20011KT 15/10 A2993 RMK A01 T01510103  RH  073%=      5-min Rain = 0
KCR2 240625Z 19010KT 15/10 A2993 RMK A01 T01510103  RH  073%=      5-min Rain = 0
KCR2 240626Z 20010KT 15/10 A2993 RMK A01 T01500102  RH  073%=      5-min Rain = 0
KCR2 240627Z 20009KT 15/10 A2993 RMK A01 T01490103  RH  074%=      5-min Rain = 0
KCR2 240628Z 20009KT 15/10 A2993 RMK A01 T01490103  RH  074%=      5-min Rain = 0
KCR2 240629Z 20009KT 15/10 A2993 RMK A01 T01480103  RH  074%=      5-min Rain = 0
KCR2 240630Z 20009KT 15/10 A2993 RMK A01 T01480103  RH  074%=      5-min Rain = 0
KCR2 240631Z 20010KT 15/10 A2993 RMK A01 T01480103  RH  074%=      5-min Rain = 0
KCR2 240632Z 20010KT 15/10 A2993 RMK A01 T01490104  RH  074%=      5-min Rain = 0
KCR2 240633Z 20009KT 15/10 A2993 RMK A01 T01490103  RH  074%=      5-min Rain = 0
KCR2 240634Z 20009KT 15/10 A2993 RMK A01 T01490103  RH  074%=      5-min Rain = 0
KCR2 240635Z 20009KT 15/10 A2993 RMK A01 T01480103  RH  074%=      5-min Rain = 0
KCR2 240636Z 20009KT 15/10 A2993 RMK A01 T01470102  RH  074%=      5-min Rain = 0
KCR2 240637Z 20009KT 15/10 A2993 RMK A01 T01470103  RH  075%=      5-min Rain = 0
KCR2 240638Z 21009KT 15/10 A2993 RMK A01 T01470103  RH  075%=      5-min Rain = 0
KCR2 240639Z 21007KT 15/10 A2993 RMK A01 T01470103  RH  075%=      5-min Rain = 0
KCR2 240640Z 21008KT 15/10 A2993 RMK A01 T01470102  RH  075%=      5-min Rain = 0
KCR2 240641Z 20007KT 15/10 A2994 RMK A01 T01460102  RH  075%=      5-min Rain = 0
KCR2 240642Z 21006KT 15/10 A2994 RMK A01 T01460102  RH  075%=      5-min Rain = 0
KCR2 240643Z 21006KT 15/10 A2994 RMK A01 T01450101  RH  075%=      5-min Rain = 0
KCR2 240644Z 21006KT 14/10 A2994 RMK A01 T01440101  RH  076%=      5-min Rain = 0
KCR2 240645Z 22005KT 14/10 A2994 RMK A01 T01430101  RH  076%=      5-min Rain = 0
KCR2 240646Z 23005KT 14/10 A2994 RMK A01 T01420100  RH  076%=      5-min Rain = 0
KCR2 240647Z 25004KT 14/10 A2994 RMK A01 T01410100  RH  076%=      5-min Rain = 0
KCR2 240648Z 28004KT 14/10 A2994 RMK A01 T01400099  RH  076%=      5-min Rain = 0
KCR2 240649Z 32004KT 14/10 A2994 RMK A01 T01370097  RH  077%=      5-min Rain = 0
KCR2 240650Z 33005KT 13/09 A2994 RMK A01 T01330093  RH  077%=      5-min Rain = 0
KCR2 240651Z 34005KT 13/09 A2994 RMK A01 T01280090  RH  078%=      5-min Rain = 0
KCR2 240652Z 35004KT 12/09 A2994 RMK A01 T01240089  RH  079%=      5-min Rain = 0
KCR2 240653Z 01004KT 12/09 A2994 RMK A01 T01210087  RH  080%=      5-min Rain = 0
KCR2 240654Z 02005KT 12/09 A2994 RMK A01 T01180087  RH  081%=      5-min Rain = 0
KCR2 240655Z 01006KT 12/09 A2994 RMK A01 T01150085  RH  082%=      5-min Rain = 0
KCR2 240656Z 02005KT 11/08 A2994 RMK A01 T01130083  RH  082%=      5-min Rain = 0
KCR2 240657Z 02006KT 11/08 A2994 RMK A01 T01100080  RH  082%=      5-min Rain = 0
KCR2 240658Z 01006KT 11/08 A2994 RMK A01 T01070079  RH  083%=      5-min Rain = 0
KCR2 240659Z 01006KT 11/08 A2994 RMK A01 T01060079  RH  084%=      5-min Rain = 0
KCR2 240700Z 01006KT 11/08 A2994 RMK A01 T01050079  RH  084%=      5-min Rain = 0
KCR2 240701Z 01005KT 10/08 A2994 RMK A01 T01040079  RH  084%=      5-min Rain = 0
KCR2 240702Z 00005KT 10/08 A2994 RMK A01 T01030078  RH  085%=      5-min Rain = 0
KCR2 240703Z 36005KT 10/08 A2994 RMK A01 T01030078  RH  085%=      5-min Rain = 0
KCR2 240704Z 36004KT 10/08 A2994 RMK A01 T01020077  RH  085%=      5-min Rain = 0
KCR2 240705Z 35003KT 10/08 A2994 RMK A01 T01010078  RH  085%=      5-min Rain = 0
KCR2 240706Z 34003KT 10/08 A2994 RMK A01 T01010078  RH  086%=      5-min Rain = 0
KCR2 240707Z 34004KT 10/08 A2994 RMK A01 T01010078  RH  086%=      5-min Rain = 0
KCR2 240708Z 34004KT 10/08 A2994 RMK A01 T01000077  RH  085%=      5-min Rain = 0
KCR2 240709Z 34004KT 10/08 A2994 RMK A01 T00990076  RH  086%=      5-min Rain = 0
KCR2 240710Z 34004KT 10/07 A2994 RMK A01 T00980074  RH  086%=      5-min Rain = 0
KCR2 240711Z 34004KT 10/07 A2994 RMK A01 T00960074  RH  086%=      5-min Rain = 0
KCR2 240712Z 35004KT 10/08 A2994 RMK A01 T00960075  RH  087%=      5-min Rain = 0
KCR2 240713Z 36003KT 10/08 A2994 RMK A01 T00950075  RH  087%=      5-min Rain = 0
KCR2 240714Z 00004KT 09/07 A2994 RMK A01 T00940074  RH  087%=      5-min Rain = 0
KCR2 240715Z 00004KT 09/07 A2994 RMK A01 T00930073  RH  087%=      5-min Rain = 0
KCR2 240716Z 01005KT 09/07 A2994 RMK A01 T00920072  RH  087%=      5-min Rain = 0
KCR2 240717Z 01005KT 09/07 A2994 RMK A01 T00910071  RH  088%=      5-min Rain = 0
KCR2 240718Z 00004KT 09/07 A2994 RMK A01 T00910072  RH  088%=      5-min Rain = 0
KCR2 240719Z 01004KT 09/07 A2994 RMK A01 T00900072  RH  088%=      5-min Rain = 0
KCR2 240720Z 01005KT 09/07 A2994 RMK A01 T00900072  RH  088%=      5-min Rain = 0
KCR2 240721Z 01005KT 09/07 A2994 RMK A01 T00900072  RH  088%=      5-min Rain = 0
KCR2 240722Z 01004KT 09/07 A2994 RMK A01 T00900071  RH  088%=      5-min Rain = 0
KCR2 240723Z 02004KT 09/07 A2994 RMK A01 T00890070  RH  088%=      5-min Rain = 0
KCR2 240724Z 03004KT 09/07 A2994 RMK A01 T00880070  RH  088%=      5-min Rain = 0
KCR2 240725Z 03004KT 09/07 A2994 RMK A01 T00880070  RH  089%=      5-min Rain = 0
KCR2 240726Z 03004KT 09/07 A2995 RMK A01 T00880072  RH  090%=      5-min Rain = 0
KCR2 240727Z 04004KT 09/07 A2994 RMK A01 T00880073  RH  090%=      5-min Rain = 0
KCR2 240728Z 03004KT 09/07 A2994 RMK A01 T00890074  RH  090%=      5-min Rain = 0
KCR2 240729Z 03004KT 09/07 A2995 RMK A01 T00900074  RH  090%=      5-min Rain = 0
KCR2 240730Z 03003KT 09/08 A2994 RMK A01 T00910075  RH  090%=      5-min Rain = 0
KCR2 240731Z 03003KT 09/08 A2994 RMK A01 T00910075  RH  090%=      5-min Rain = 0
KCR2 240732Z 02002KT 09/08 A2994 RMK A01 T00920075  RH  089%=      5-min Rain = 0
KCR2 240733Z 02002KT 09/07 A2994 RMK A01 T00920074  RH  089%=      5-min Rain = 0
KCR2 240734Z 02001KT 09/07 A2994 RMK A01 T00920074  RH  089%=      5-min Rain = 0
KCR2 240735Z 02001KT 09/07 A2994 RMK A01 T00910072  RH  088%=      5-min Rain = 0
KCR2 240736Z 01002KT 09/07 A2994 RMK A01 T00900071  RH  088%=      5-min Rain = 0
KCR2 240737Z 01002KT 09/07 A2994 RMK A01 T00890071  RH  088%=      5-min Rain = 0
KCR2 240738Z 01001KT 09/07 A2994 RMK A01 T00890072  RH  089%=      5-min Rain = 0
KCR2 240739Z 01001KT 09/07 A2994 RMK A01 T00880071  RH  089%=      5-min Rain = 0
KCR2 240740Z 01001KT 09/07 A2994 RMK A01 T00860069  RH  089%=      5-min Rain = 0
KCR2 240741Z 01001KT 09/07 A2994 RMK A01 T00860071  RH  090%=      5-min Rain = 0
KCR2 240742Z 01000KT 09/07 A2994 RMK A01 T00860072  RH  091%=      5-min Rain = 0
KCR2 240743Z 00000KT 09/07 A2994 RMK A01 T00860072  RH  091%=      5-min Rain = 0
KCR2 240744Z 00000KT 09/07 A2994 RMK A01 T00870073  RH  091%=      5-min Rain = 0
KCR2 240745Z 00000KT 09/07 A2994 RMK A01 T00870072  RH  091%=      5-min Rain = 0
KCR2 240746Z 00000KT 09/07 A2994 RMK A01 T00850068  RH  089%=      5-min Rain = 0
KCR2 240747Z 00000KT 08/07 A2994 RMK A01 T00830065  RH  088%=      5-min Rain = 0
KCR2 240748Z 00000KT 08/07 A2994 RMK A01 T00820066  RH  090%=      5-min Rain = 0
KCR2 240749Z 00000KT 08/07 A2994 RMK A01 T00830069  RH  091%=      5-min Rain = 0
KCR2 240750Z 00000KT 09/07 A2994 RMK A01 T00850074  RH  093%=      5-min Rain = 0
KCR2 240751Z 00000KT 09/08 A2994 RMK A01 T00870076  RH  093%=      5-min Rain = 0
KCR2 240752Z 00000KT 09/08 A2994 RMK A01 T00880077  RH  093%=      5-min Rain = 0
KCR2 240753Z 00000KT 09/08 A2994 RMK A01 T00890077  RH  092%=      5-min Rain = 0
KCR2 240754Z 00000KT 09/08 A2995 RMK A01 T00900077  RH  091%=      5-min Rain = 0
KCR2 240755Z 00000KT 09/08 A2995 RMK A01 T00900076  RH  091%=      5-min Rain = 0
KCR2 240756Z 01000KT 09/08 A2994 RMK A01 T00900076  RH  091%=      5-min Rain = 0
KCR2 240757Z 01000KT 09/08 A2995 RMK A01 T00900076  RH  091%=      5-min Rain = 0
KCR2 240758Z 01001KT 09/08 A2995 RMK A01 T00900075  RH  090%=      5-min Rain = 0
KCR2 240759Z 12001KT 09/08 A2994 RMK A01 T00900076  RH  091%=      5-min Rain = 0
KCR2 240800Z 14001KT 09/08 A2994 RMK A01 T00910077  RH  091%=      5-min Rain = 0
KCR2 240801Z 14001KT 09/08 A2994 RMK A01 T00910075  RH  090%=      5-min Rain = 0
KCR2 240802Z 14000KT 09/07 A2994 RMK A01 T00900073  RH  089%=      5-min Rain = 0
KCR2 240803Z 00000KT 09/07 A2994 RMK A01 T00890072  RH  089%=      5-min Rain = 0
KCR2 240804Z 00000KT 09/07 A2994 RMK A01 T00880072  RH  090%=      5-min Rain = 0
KCR2 240805Z 00000KT 09/07 A2995 RMK A01 T00870070  RH  089%=      5-min Rain = 0
KCR2 240806Z 09000KT 09/07 A2995 RMK A01 T00850066  RH  088%=      5-min Rain = 0
KCR2 240807Z 09000KT 08/07 A2995 RMK A01 T00830067  RH  089%=      5-min Rain = 0
KCR2 240808Z 00000KT 08/07 A2995 RMK A01 T00820066  RH  090%=      5-min Rain = 0
KCR2 240809Z 00000KT 08/06 A2995 RMK A01 T00810064  RH  089%=      5-min Rain = 0
KCR2 240810Z 00000KT 08/06 A2995 RMK A01 T00780062  RH  089%=      5-min Rain = 0
KCR2 240811Z 00000KT 08/06 A2995 RMK A01 T00770062  RH  090%=      5-min Rain = 0
KCR2 240812Z 18001KT 08/06 A2995 RMK A01 T00770063  RH  091%=      5-min Rain = 0
KCR2 240813Z 19001KT 08/06 A2995 RMK A01 T00770064  RH  091%=      5-min Rain = 0
KCR2 240814Z 20001KT 08/07 A2995 RMK A01 T00770065  RH  092%=      5-min Rain = 0
KCR2 240815Z 20002KT 08/07 A2995 RMK A01 T00770066  RH  093%=      5-min Rain = 0
KCR2 240816Z 19002KT 08/07 A2995 RMK A01 T00790069  RH  093%=      5-min Rain = 0
KCR2 240817Z 20002KT 08/07 A2995 RMK A01 T00800070  RH  094%=      5-min Rain = 0
KCR2 240818Z 20002KT 08/07 A2995 RMK A01 T00810071  RH  094%=      5-min Rain = 0
KCR2 240819Z 20002KT 08/07 A2994 RMK A01 T00810071  RH  093%=      5-min Rain = 0
KCR2 240820Z 20002KT 08/07 A2994 RMK A01 T00830072  RH  093%=      5-min Rain = 0
KCR2 240821Z 19002KT 08/07 A2994 RMK A01 T00830071  RH  092%=      5-min Rain = 0
KCR2 240822Z 19002KT 08/07 A2994 RMK A01 T00830069  RH  091%=      5-min Rain = 0
KCR2 240823Z 20002KT 08/07 A2995 RMK A01 T00830068  RH  091%=      5-min Rain = 0
KCR2 240824Z 20002KT 08/07 A2995 RMK A01 T00810066  RH  090%=      5-min Rain = 0
KCR2 240825Z 19002KT 08/06 A2995 RMK A01 T00800064  RH  090%=      5-min Rain = 0
KCR2 240826Z 17001KT 08/06 A2995 RMK A01 T00780061  RH  089%=      5-min Rain = 0
KCR2 240827Z 16002KT 07/05 A2995 RMK A01 T00740054  RH  087%=      5-min Rain = 0
KCR2 240828Z 15002KT 07/05 A2995 RMK A01 T00710050  RH  087%=      5-min Rain = 0
KCR2 240829Z 14001KT 07/05 A2995 RMK A01 T00690052  RH  089%=      5-min Rain = 0
KCR2 240830Z 14001KT 07/05 A2995 RMK A01 T00680054  RH  091%=      5-min Rain = 0
KCR2 240831Z 14001KT 07/06 A2995 RMK A01 T00690057  RH  092%=      5-min Rain = 0
KCR2 240832Z 14001KT 07/06 A2995 RMK A01 T00700059  RH  093%=      5-min Rain = 0
KCR2 240833Z 14001KT 07/06 A2995 RMK A01 T00710062  RH  094%=      5-min Rain = 0
KCR2 240834Z 14000KT 07/06 A2995 RMK A01 T00730064  RH  094%=      5-min Rain = 0
KCR2 240835Z 00000KT 07/07 A2995 RMK A01 T00730065  RH  095%=      5-min Rain = 0
KCR2 240836Z 00000KT 07/06 A2995 RMK A01 T00720062  RH  093%=      5-min Rain = 0
KCR2 240837Z 09001KT 07/06 A2995 RMK A01 T00710061  RH  093%=      5-min Rain = 0
KCR2 240838Z 08001KT 07/06 A2995 RMK A01 T00710062  RH  094%=      5-min Rain = 0
KCR2 240839Z 08000KT 07/06 A2995 RMK A01 T00710063  RH  094%=      5-min Rain = 0
KCR2 240840Z 10000KT 07/07 A2995 RMK A01 T00730065  RH  095%=      5-min Rain = 0
KCR2 240841Z 11000KT 07/07 A2995 RMK A01 T00730066  RH  095%=      5-min Rain = 0
KCR2 240842Z 00000KT 07/07 A2995 RMK A01 T00730066  RH  095%=      5-min Rain = 0
KCR2 240843Z 00000KT 07/07 A2995 RMK A01 T00740067  RH  095%=      5-min Rain = 0
KCR2 240844Z 00000KT 08/07 A2995 RMK A01 T00750068  RH  095%=      5-min Rain = 0
KCR2 240845Z 12000KT 07/07 A2995 RMK A01 T00740067  RH  095%=      5-min Rain = 0
KCR2 240846Z 16000KT 07/07 A2995 RMK A01 T00740066  RH  095%=      5-min Rain = 0
KCR2 240847Z 00000KT 07/07 A2995 RMK A01 T00730065  RH  095%=      5-min Rain = 0
KCR2 240848Z 12001KT 07/06 A2995 RMK A01 T00720064  RH  095%=      5-min Rain = 0
KCR2 240849Z 17001KT 07/06 A2995 RMK A01 T00710063  RH  094%=      5-min Rain = 0
KCR2 240850Z 17001KT 07/06 A2995 RMK A01 T00690059  RH  093%=      5-min Rain = 0
KCR2 240851Z 17001KT 07/06 A2995 RMK A01 T00670057  RH  093%=      5-min Rain = 0
KCR2 240852Z 16001KT 07/06 A2995 RMK A01 T00670059  RH  094%=      5-min Rain = 0
KCR2 240853Z 18001KT 07/06 A2995 RMK A01 T00660058  RH  094%=      5-min Rain = 0
KCR2 240854Z 19001KT 07/06 A2995 RMK A01 T00670061  RH  095%=      5-min Rain = 0
KCR2 240855Z 19001KT 07/06 A2995 RMK A01 T00690062  RH  096%=      5-min Rain = 0
KCR2 240856Z 19001KT 07/06 A2995 RMK A01 T00690063  RH  096%=      5-min Rain = 0
KCR2 240857Z 19002KT 07/06 A2995 RMK A01 T00670058  RH  094%=      5-min Rain = 0
KCR2 240858Z 19001KT 06/05 A2995 RMK A01 T00630053  RH  093%=      5-min Rain = 0
KCR2 240859Z 18001KT 06/05 A2995 RMK A01 T00600048  RH  092%=      5-min Rain = 0
KCR2 240900Z 18001KT 06/05 A2995 RMK A01 T00580046  RH  092%=      5-min Rain = 0
KCR2 240901Z 18001KT 06/05 A2995 RMK A01 T00580050  RH  094%=      5-min Rain = 0
KCR2 240902Z 19001KT 06/05 A2995 RMK A01 T00600053  RH  095%=      5-min Rain = 0
KCR2 240903Z 20002KT 06/06 A2995 RMK A01 T00610055  RH  096%=      5-min Rain = 0
KCR2 240904Z 20003KT 06/06 A2995 RMK A01 T00620056  RH  096%=      5-min Rain = 0
KCR2 240905Z 22001KT 06/06 A2995 RMK A01 T00630058  RH  096%=      5-min Rain = 0
KCR2 240906Z 23001KT 06/06 A2995 RMK A01 T00640058  RH  096%=      5-min Rain = 0
KCR2 240907Z 22001KT 06/06 A2995 RMK A01 T00640058  RH  096%=      5-min Rain = 0
KCR2 240908Z 22001KT 06/06 A2995 RMK A01 T00640058  RH  096%=      5-min Rain = 0
KCR2 240909Z 00000KT 06/06 A2995 RMK A01 T00630058  RH  096%=      5-min Rain = 0
KCR2 240910Z 00000KT 06/06 A2995 RMK A01 T00640059  RH  097%=      5-min Rain = 0
KCR2 240911Z 00000KT 06/06 A2995 RMK A01 T00640060  RH  097%=      5-min Rain = 0
KCR2 240912Z 00000KT 06/06 A2995 RMK A01 T00630058  RH  097%=      5-min Rain = 0
KCR2 240913Z 00000KT 06/06 A2995 RMK A01 T00630058  RH  097%=      5-min Rain = 0
KCR2 240914Z 22000KT 06/06 A2995 RMK A01 T00640061  RH  098%=      5-min Rain = 0
KCR2 240915Z 24001KT 07/06 A2995 RMK A01 T00660063  RH  098%=      5-min Rain = 0
KCR2 240916Z 22001KT 07/07 A2995 RMK A01 T00680065  RH  098%=      5-min Rain = 0
KCR2 240917Z 21001KT 07/06 A2995 RMK A01 T00670064  RH  098%=      5-min Rain = 0
KCR2 240918Z 22002KT 07/06 A2995 RMK A01 T00660063  RH  098%=      5-min Rain = 0
KCR2 240919Z 21002KT 07/06 A2995 RMK A01 T00660063  RH  098%=      5-min Rain = 0
KCR2 240920Z 22002KT 07/06 A2995 RMK A01 T00660063  RH  098%=      5-min Rain = 0
KCR2 240921Z 22002KT 06/06 A2995 RMK A01 T00640060  RH  097%=      5-min Rain = 0
KCR2 240922Z 22003KT 06/06 A2995 RMK A01 T00620058  RH  097%=      5-min Rain = 0
KCR2 240923Z 21003KT 06/06 A2995 RMK A01 T00620058  RH  097%=      5-min Rain = 0
KCR2 240924Z 21004KT 06/06 A2995 RMK A01 T00630060  RH  098%=      5-min Rain = 0
KCR2 240925Z 21004KT 06/06 A2995 RMK A01 T00640061  RH  098%=      5-min Rain = 0
KCR2 240926Z 22004KT 07/07 A2995 RMK A01 T00680067  RH  099%=      5-min Rain = 0
KCR2 240927Z 21005KT 07/07 A2994 RMK A01 T00720072  RH  100%=      5-min Rain = 0
KCR2 240928Z 22005KT 07/07 A2994 RMK A01 T00720072  RH  100%=      5-min Rain = 0
KCR2 240929Z 21005KT 07/07 A2994 RMK A01 T00740074  RH  100%=      5-min Rain = 0
KCR2 240930Z 21005KT 08/08 A2994 RMK A01 T00760076  RH  100%=      5-min Rain = 0
KCR2 240931Z 21006KT 08/08 A2994 RMK A01 T00760076  RH  100%=      5-min Rain = 0
KCR2 240932Z 21006KT 08/08 A2994 RMK A01 T00760076  RH  100%=      5-min Rain = 0
KCR2 240933Z 20007KT 07/07 A2994 RMK A01 T00720072  RH  100%=      5-min Rain = 0
KCR2 240934Z 20007KT 07/07 A2994 RMK A01 T00680067  RH  099%=      5-min Rain = 0
KCR2 240935Z 20008KT 07/07 A2994 RMK A01 T00660065  RH  099%=      5-min Rain = 0
KCR2 240936Z 20008KT 07/07 A2994 RMK A01 T00650065  RH  100%=      5-min Rain = 0
KCR2 240937Z 19007KT 06/06 A2994 RMK A01 T00640064  RH  100%=      5-min Rain = 0
KCR2 240938Z 20006KT 06/06 A2994 RMK A01 T00640064  RH  100%=      5-min Rain = 0
KCR2 240939Z 21006KT 06/06 A2994 RMK A01 T00630063  RH  100%=      5-min Rain = 0
KCR2 240940Z 21005KT 06/06 A2994 RMK A01 T00620062  RH  100%=      5-min Rain = 0
KCR2 240941Z 22005KT 06/06 A2994 RMK A01 T00600059  RH  099%=      5-min Rain = 0
KCR2 240942Z 21004KT 06/06 A2994 RMK A01 T00570055  RH  099%=      5-min Rain = 0
KCR2 240943Z 21003KT 06/06 A2994 RMK A01 T00560055  RH  099%=      5-min Rain = 0
KCR2 240944Z 22001KT 06/06 A2994 RMK A01 T00570057  RH  100%=      5-min Rain = 0
KCR2 240945Z 29001KT 06/06 A2994 RMK A01 T00600060  RH  100%=      5-min Rain = 0
KCR2 240946Z 26001KT 06/06 A2994 RMK A01 T00610061  RH  100%=      5-min Rain = 0
KCR2 240947Z 28002KT 06/06 A2994 RMK A01 T00630063  RH  100%=      5-min Rain = 0
KCR2 240948Z 29003KT 07/07 A2995 RMK A01 T00670067  RH  100%=      5-min Rain = 0
KCR2 240949Z 28002KT 07/07 A2995 RMK A01 T00700070  RH  100%=      5-min Rain = 0
KCR2 240950Z 25002KT 07/07 A2994 RMK A01 T00700067  RH  098%=      5-min Rain = 0
KCR2 240951Z 28003KT 07/07 A2995 RMK A01 T00690066  RH  098%=      5-min Rain = 0
KCR2 240952Z 27002KT 07/06 A2995 RMK A01 T00670064  RH  097%=      5-min Rain = 0
KCR2 240953Z 23002KT 07/06 A2994 RMK A01 T00650061  RH  097%=      5-min Rain = 0
KCR2 240954Z 28002KT 06/06 A2995 RMK A01 T00640059  RH  097%=      5-min Rain = 0
KCR2 240955Z 26002KT 06/06 A2995 RMK A01 T00620057  RH  097%=      5-min Rain = 0
KCR2 240956Z 25001KT 06/06 A2994 RMK A01 T00610057  RH  097%=      5-min Rain = 0
KCR2 240957Z 25001KT 06/06 A2995 RMK A01 T00610058  RH  098%=      5-min Rain = 0
KCR2 240958Z 25002KT 07/06 A2995 RMK A01 T00660064  RH  099%=      5-min Rain = 0
KCR2 240959Z 25002KT 07/07 A2995 RMK A01 T00690068  RH  099%=      5-min Rain = 0
KCR2 241000Z 25002KT 07/07 A2995 RMK A01 T00710069  RH  099%=      5-min Rain = 0
KCR2 241001Z 26002KT 07/07 A2995 RMK A01 T00740071  RH  098%=      5-min Rain = 0
KCR2 241002Z 28002KT 08/07 A2995 RMK A01 T00760071  RH  097%=      5-min Rain = 0
KCR2 241003Z 28001KT 08/06 A2995 RMK A01 T00760064  RH  093%=      5-min Rain = 0
KCR2 241004Z 30001KT 07/05 A2995 RMK A01 T00680048  RH  087%=      5-min Rain = 0
KCR2 241005Z 31001KT 06/05 A2995 RMK A01 T00630046  RH  089%=      5-min Rain = 0
KCR2 241006Z 32001KT 06/05 A2995 RMK A01 T00600046  RH  091%=      5-min Rain = 0
KCR2 241007Z 33001KT 06/05 A2995 RMK A01 T00580046  RH  092%=      5-min Rain = 0
KCR2 241008Z 30001KT 06/05 A2995 RMK A01 T00580049  RH  094%=      5-min Rain = 0
KCR2 241009Z 28001KT 06/05 A2995 RMK A01 T00590051  RH  095%=      5-min Rain = 0
KCR2 241010Z 27000KT 06/05 A2995 RMK A01 T00590049  RH  094%=      5-min Rain = 0
KCR2 241011Z 03002KT 06/04 A2995 RMK A01 T00550044  RH  092%=      5-min Rain = 0
KCR2 241012Z 01004KT 05/04 A2995 RMK A01 T00520041  RH  092%=      5-min Rain = 0
KCR2 241013Z 00005KT 05/04 A2995 RMK A01 T00490038  RH  093%=      5-min Rain = 0
KCR2 241014Z 00005KT 05/04 A2995 RMK A01 T00480040  RH  094%=      5-min Rain = 0
KCR2 241015Z 01004KT 05/04 A2995 RMK A01 T00480041  RH  095%=      5-min Rain = 0
KCR2 241016Z 02005KT 05/04 A2995 RMK A01 T00480042  RH  096%=      5-min Rain = 0
KCR2 241017Z 01005KT 05/04 A2995 RMK A01 T00470042  RH  096%=      5-min Rain = 0
KCR2 241018Z 36004KT 05/04 A2995 RMK A01 T00470042  RH  097%=      5-min Rain = 0
KCR2 241019Z 00004KT 05/04 A2995 RMK A01 T00470043  RH  097%=      5-min Rain = 0
KCR2 241020Z 01004KT 05/04 A2995 RMK A01 T00470044  RH  098%=      5-min Rain = 0
KCR2 241021Z 01005KT 05/04 A2995 RMK A01 T00470044  RH  098%=      5-min Rain = 0
KCR2 241022Z 00005KT 05/05 A2996 RMK A01 T00470045  RH  098%=      5-min Rain = 0
KCR2 241023Z 36005KT 05/05 A2996 RMK A01 T00470045  RH  098%=      5-min Rain = 0
KCR2 241024Z 00005KT 05/05 A2996 RMK A01 T00470045  RH  099%=      5-min Rain = 0
KCR2 241025Z 00005KT 05/05 A2996 RMK A01 T00470045  RH  099%=      5-min Rain = 0
KCR2 241026Z 00005KT 05/04 A2996 RMK A01 T00470044  RH  098%=      5-min Rain = 0
KCR2 241027Z 00005KT 05/04 A2996 RMK A01 T00460044  RH  098%=      5-min Rain = 0
KCR2 241028Z 00005KT 05/04 A2996 RMK A01 T00460044  RH  099%=      5-min Rain = 0
KCR2 241029Z 00006KT 05/04 A2996 RMK A01 T00460044  RH  099%=      5-min Rain = 0
KCR2 241030Z 00006KT 05/04 A2996 RMK A01 T00460044  RH  099%=      5-min Rain = 0
KCR2 241031Z 36006KT 05/04 A2996 RMK A01 T00450043  RH  099%=      5-min Rain = 0
KCR2 241032Z 36005KT 04/04 A2996 RMK A01 T00440042  RH  098%=      5-min Rain = 0
KCR2 241033Z 35005KT 04/04 A2996 RMK A01 T00440041  RH  098%=      5-min Rain = 0
KCR2 241034Z 36005KT 04/04 A2996 RMK A01 T00440042  RH  099%=      5-min Rain = 0
KCR2 241035Z 36005KT 04/04 A2996 RMK A01 T00430041  RH  099%=      5-min Rain = 0
KCR2 241036Z 00006KT 04/04 A2996 RMK A01 T00430041  RH  099%=      5-min Rain = 0
KCR2 241037Z 36006KT 04/04 A2996 RMK A01 T00430041  RH  099%=      5-min Rain = 0
KCR2 241038Z 00005KT 04/04 A2996 RMK A01 T00430041  RH  099%=      5-min Rain = 0
KCR2 241039Z 36005KT 04/04 A2996 RMK A01 T00430041  RH  099%=      5-min Rain = 0
KCR2 241040Z 35005KT 04/04 A2997 RMK A01 T00430042  RH  099%=      5-min Rain = 0
KCR2 241041Z 35004KT 04/04 A2997 RMK A01 T00430043  RH  099%=      5-min Rain = 0
KCR2 241042Z 35004KT 04/04 A2997 RMK A01 T00430042  RH  099%=      5-min Rain = 0
KCR2 241043Z 35004KT 04/04 A2997 RMK A01 T00440043  RH  100%=      5-min Rain = 0
KCR2 241044Z 35004KT 04/04 A2996 RMK A01 T00440044  RH  100%=      5-min Rain = 0
KCR2 241045Z 35004KT 05/05 A2997 RMK A01 T00450045  RH  100%=      5-min Rain = 0
KCR2 241046Z 35004KT 05/05 A2997 RMK A01 T00450045  RH  100%=      5-min Rain = 0
KCR2 241047Z 34003KT 05/05 A2997 RMK A01 T00450045  RH  100%=      5-min Rain = 0
KCR2 241048Z 35003KT 05/05 A2997 RMK A01 T00450045  RH  100%=      5-min Rain = 0
KCR2 241049Z 35004KT 05/05 A2997 RMK A01 T00450045  RH  100%=      5-min Rain = 0
KCR2 241050Z 35004KT 05/04 A2997 RMK A01 T00450044  RH  100%=      5-min Rain = 0
KCR2 241051Z 35004KT 04/04 A2997 RMK A01 T00440044  RH  100%=      5-min Rain = 0
KCR2 241052Z 35004KT 04/04 A2997 RMK A01 T00440043  RH  100%=      5-min Rain = 0
KCR2 241053Z 35003KT 04/04 A2997 RMK A01 T00440044  RH  100%=      5-min Rain = 0
KCR2 241054Z 34004KT 04/04 A2997 RMK A01 T00440044  RH  100%=      5-min Rain = 0
KCR2 241055Z 34003KT 04/04 A2997 RMK A01 T00440044  RH  100%=      5-min Rain = 0
KCR2 241056Z 34003KT 05/04 A2997 RMK A01 T00450044  RH  100%=      5-min Rain = 0
KCR2 241057Z 33003KT 05/05 A2997 RMK A01 T00460046  RH  100%=      5-min Rain = 0
KCR2 241058Z 32003KT 05/05 A2997 RMK A01 T00470047  RH  100%=      5-min Rain = 0
KCR2 241059Z 31002KT 05/05 A2997 RMK A01 T00500050  RH  100%=      5-min Rain = 0
KCR2 241100Z 31002KT 05/05 A2998 RMK A01 T00500050  RH  100%=      5-min Rain = 0
KCR2 241101Z 31002KT 05/05 A2998 RMK A01 T00500050  RH  100%=      5-min Rain = 0
KCR2 241102Z 31001KT 05/05 A2998 RMK A01 T00480047  RH  099%=      5-min Rain = 0
KCR2 241103Z 29001KT 05/05 A2998 RMK A01 T00470047  RH  099%=      5-min Rain = 0
KCR2 241104Z 27002KT 05/05 A2998 RMK A01 T00480047  RH  100%=      5-min Rain = 0
KCR2 241105Z 26001KT 05/05 A2998 RMK A01 T00480048  RH  100%=      5-min Rain = 0
KCR2 241106Z 24001KT 05/05 A2998 RMK A01 T00490048  RH  100%=      5-min Rain = 0
KCR2 241107Z 22002KT 05/05 A2998 RMK A01 T00480047  RH  099%=      5-min Rain = 0
KCR2 241108Z 22002KT 05/04 A2998 RMK A01 T00460044  RH  098%=      5-min Rain = 0
KCR2 241109Z 22003KT 05/04 A2998 RMK A01 T00460043  RH  098%=      5-min Rain = 0
KCR2 241110Z 22003KT 05/04 A2998 RMK A01 T00460044  RH  099%=      5-min Rain = 0
KCR2 241111Z 22003KT 05/04 A2998 RMK A01 T00460044  RH  099%=      5-min Rain = 0
KCR2 241112Z 22003KT 05/04 A2998 RMK A01 T00460044  RH  099%=      5-min Rain = 0
KCR2 241113Z 22004KT 05/04 A2998 RMK A01 T00460044  RH  099%=      5-min Rain = 0
KCR2 241114Z 22004KT 05/04 A2998 RMK A01 T00460044  RH  099%=      5-min Rain = 0
KCR2 241115Z 22004KT 05/04 A2998 RMK A01 T00460044  RH  099%=      5-min Rain = 0
KCR2 241116Z 22005KT 05/05 A2998 RMK A01 T00470045  RH  099%=      5-min Rain = 0
KCR2 241117Z 22005KT 05/05 A2998 RMK A01 T00470045  RH  099%=      5-min Rain = 0
KCR2 241118Z 22005KT 05/05 A2998 RMK A01 T00480046  RH  099%=      5-min Rain = 0
KCR2 241119Z 23005KT 05/05 A2998 RMK A01 T00490047  RH  098%=      5-min Rain = 0
KCR2 241120Z 23005KT 05/05 A2998 RMK A01 T00500048  RH  098%=      5-min Rain = 0
KCR2 241121Z 23004KT 05/05 A2998 RMK A01 T00520049  RH  098%=      5-min Rain = 0
KCR2 241122Z 23004KT 05/05 A2998 RMK A01 T00530049  RH  098%=      5-min Rain = 0
KCR2 241123Z 23004KT 05/05 A2998 RMK A01 T00540050  RH  097%=      5-min Rain = 0
KCR2 241124Z 24004KT 06/05 A2998 RMK A01 T00550049  RH  096%=      5-min Rain = 0
KCR2 241125Z 24004KT 06/05 A2998 RMK A01 T00550047  RH  095%=      5-min Rain = 0
KCR2 241126Z 24003KT 06/05 A2998 RMK A01 T00550046  RH  094%=      5-min Rain = 0
KCR2 241127Z 23003KT 05/04 A2998 RMK A01 T00540042  RH  092%=      5-min Rain = 0
KCR2 241128Z 23003KT 05/04 A2998 RMK A01 T00510037  RH  091%=      5-min Rain = 0
KCR2 241129Z 23004KT 05/04 A2998 RMK A01 T00500040  RH  093%=      5-min Rain = 0
KCR2 241130Z 22005KT 05/04 A2998 RMK A01 T00520043  RH  094%=      5-min Rain = 0
KCR2 241131Z 22005KT 05/04 A2998 RMK A01 T00530044  RH  094%=      5-min Rain = 0
KCR2 241132Z 23006KT 05/04 A2998 RMK A01 T00540043  RH  093%=      5-min Rain = 0
KCR2 241133Z 23006KT 05/04 A2998 RMK A01 T00540043  RH  092%=      5-min Rain = 0
KCR2 241134Z 23006KT 06/04 A2999 RMK A01 T00560042  RH  091%=      5-min Rain = 0
KCR2 241135Z 23006KT 06/04 A2999 RMK A01 T00560039  RH  088%=      5-min Rain = 0
KCR2 241136Z 23006KT 06/04 A2999 RMK A01 T00560036  RH  087%=      5-min Rain = 0
KCR2 241137Z 23006KT 06/04 A2999 RMK A01 T00580035  RH  085%=      5-min Rain = 0
KCR2 241138Z 23005KT 06/04 A2999 RMK A01 T00610035  RH  083%=      5-min Rain = 0
KCR2 241139Z 23005KT 06/03 A2999 RMK A01 T00630034  RH  082%=      5-min Rain = 0
KCR2 241140Z 23005KT 06/03 A2999 RMK A01 T00640034  RH  081%=      5-min Rain = 0
KCR2 241141Z 23006KT 06/03 A2999 RMK A01 T00630034  RH  082%=      5-min Rain = 0
KCR2 241142Z 23006KT 06/04 A2999 RMK A01 T00620035  RH  083%=      5-min Rain = 0
KCR2 241143Z 22006KT 06/03 A2999 RMK A01 T00620033  RH  082%=      5-min Rain = 0
KCR2 241144Z 22006KT 06/03 A2999 RMK A01 T00630031  RH  080%=      5-min Rain = 0
KCR2 241145Z 22006KT 07/03 A2999 RMK A01 T00660030  RH  078%=      5-min Rain = 0
KCR2 241146Z 22006KT 07/03 A2999 RMK A01 T00690030  RH  076%=      5-min Rain = 0
KCR2 241147Z 22005KT 07/03 A2999 RMK A01 T00700029  RH  075%=      5-min Rain = 0
KCR2 241148Z 22005KT 07/03 A2999 RMK A01 T00690028  RH  075%=      5-min Rain = 0
KCR2 241149Z 22004KT 07/03 A2999 RMK A01 T00700028  RH  074%=      5-min Rain = 0
KCR2 241150Z 22005KT 07/03 A2999 RMK A01 T00710028  RH  074%=      5-min Rain = 0
KCR2 241151Z 22005KT 07/03 A2999 RMK A01 T00700028  RH  075%=      5-min Rain = 0
KCR2 241152Z 21005KT 07/03 A2999 RMK A01 T00690027  RH  074%=      5-min Rain = 0
KCR2 241153Z 21005KT 07/03 A2999 RMK A01 T00700027  RH  074%=      5-min Rain = 0
KCR2 241154Z 21005KT 07/03 A2999 RMK A01 T00710026  RH  073%=      5-min Rain = 0
KCR2 241155Z 22004KT 07/03 A2999 RMK A01 T00710025  RH  073%=      5-min Rain = 0
KCR2 241156Z 21005KT 07/02 A2999 RMK A01 T00690024  RH  073%=      5-min Rain = 0
KCR2 241157Z 21005KT 07/02 A2999 RMK A01 T00680023  RH  073%=      5-min Rain = 0
KCR2 241158Z 21005KT 07/02 A2999 RMK A01 T00690024  RH  073%=      5-min Rain = 0
KCR2 241159Z 20005KT 07/03 A2999 RMK A01 T00710025  RH  073%=      5-min Rain = 0
KCR2 241200Z 20005KT 07/03 A2999 RMK A01 T00700026  RH  073%=      5-min Rain = 0
KCR2 241201Z 20005KT 07/03 A2999 RMK A01 T00700027  RH  074%=      5-min Rain = 0
KCR2 241202Z 19005KT 07/03 A2999 RMK A01 T00720029  RH  074%=      5-min Rain = 0
KCR2 241203Z 19005KT 07/03 A2999 RMK A01 T00730029  RH  073%=      5-min Rain = 0
KCR2 241204Z 19004KT 07/03 A2999 RMK A01 T00740029  RH  073%=      5-min Rain = 0
KCR2 241205Z 19005KT 07/03 A2999 RMK A01 T00730029  RH  073%=      5-min Rain = 0
KCR2 241206Z 19004KT 07/03 A30 RMK A01 T00730029  RH  073%=      5-min Rain = 0
KCR2 241207Z 19004KT 07/03 A30 RMK A01 T00720029  RH  074%=      5-min Rain = 0
KCR2 241208Z 19004KT 07/03 A30 RMK A01 T00710028  RH  074%=      5-min Rain = 0
KCR2 241209Z 19004KT 07/03 A30 RMK A01 T00710028  RH  074%=      5-min Rain = 0
KCR2 241210Z 19003KT 07/03 A30 RMK A01 T00720027  RH  073%=      5-min Rain = 0
KCR2 241211Z 17002KT 07/03 A30 RMK A01 T00730028  RH  073%=      5-min Rain = 0
KCR2 241212Z 16002KT 07/03 A30 RMK A01 T00710027  RH  073%=      5-min Rain = 0
KCR2 241213Z 12001KT 07/03 A30 RMK A01 T00690025  RH  073%=      5-min Rain = 0
KCR2 241214Z 02005G11KT 07/02 A3001 RMK A01 T00710024  RH  072%=      5-min Rain = 0
KCR2 241215Z 01012KT 07/02 A3002 RMK A01 T00660022  RH  073%=      5-min Rain = 0
KCR2 241216Z 01010KT 06/02 A3002 RMK A01 T00580020  RH  077%=      5-min Rain = 0
KCR2 241217Z 01007KT 05/02 A3002 RMK A01 T00530021  RH  080%=      5-min Rain = 0
KCR2 241218Z 01007KT 05/02 A3002 RMK A01 T00510022  RH  082%=      5-min Rain = 0
KCR2 241219Z 01010KT 05/02 A3002 RMK A01 T00500023  RH  083%=      5-min Rain = 0
KCR2 241220Z 02009KT 05/02 A3003 RMK A01 T00500024  RH  084%=      5-min Rain = 0
KCR2 241221Z 02005KT 05/02 A3002 RMK A01 T00490024  RH  084%=      5-min Rain = 0
KCR2 241222Z 02004KT 05/03 A3002 RMK A01 T00500025  RH  084%=      5-min Rain = 0
KCR2 241223Z 03003KT 05/03 A3002 RMK A01 T00510026  RH  084%=      5-min Rain = 0
KCR2 241224Z 03005KT 05/03 A3002 RMK A01 T00530027  RH  083%=      5-min Rain = 0
KCR2 241225Z 03006KT 05/03 A3002 RMK A01 T00540026  RH  082%=      5-min Rain = 0
KCR2 241226Z 03005KT 06/03 A3002 RMK A01 T00550026  RH  082%=      5-min Rain = 0
KCR2 241227Z 03006KT 06/03 A3003 RMK A01 T00550026  RH  082%=      5-min Rain = 0
KCR2 241228Z 03006KT 06/03 A3003 RMK A01 T00550026  RH  082%=      5-min Rain = 0
KCR2 241229Z 03005KT 05/03 A3003 RMK A01 T00530026  RH  082%=      5-min Rain = 0
KCR2 241230Z 03006KT 05/03 A3003 RMK A01 T00520025  RH  083%=      5-min Rain = 0
KCR2 241231Z 03007KT 05/03 A3003 RMK A01 T00510025  RH  083%=      5-min Rain = 0
KCR2 241232Z 03007KT 05/03 A3004 RMK A01 T00510025  RH  083%=      5-min Rain = 0
KCR2 241233Z 03008KT 05/03 A3004 RMK A01 T00510025  RH  083%=      5-min Rain = 0
KCR2 241234Z 04008KT 05/03 A3004 RMK A01 T00520026  RH  084%=      5-min Rain = 0
KCR2 241235Z 04007KT 05/03 A3005 RMK A01 T00520027  RH  084%=      5-min Rain = 0
KCR2 241236Z 04009KT 05/03 A3005 RMK A01 T00530031  RH  086%=      5-min Rain = 0
KCR2 241237Z 05009KT 06/04 A3005 RMK A01 T00550035  RH  087%=      5-min Rain = 0
KCR2 241238Z 05009KT 06/04 A3005 RMK A01 T00550036  RH  087%=      5-min Rain = 0
KCR2 241239Z 05009KT 06/04 A3006 RMK A01 T00560037  RH  087%=      5-min Rain = 0
KCR2 241240Z 06008KT 06/04 A3006 RMK A01 T00560037  RH  087%=      5-min Rain = 0
KCR2 241241Z 06008KT 06/04 A3006 RMK A01 T00570037  RH  087%=      5-min Rain = 0
KCR2 241242Z 06007KT 06/04 A3006 RMK A01 T00580036  RH  086%=      5-min Rain = 0
KCR2 241243Z 06008KT 06/04 A3006 RMK A01 T00590036  RH  085%=      5-min Rain = 0
KCR2 241244Z 07007KT 06/03 A3005 RMK A01 T00590034  RH  084%=      5-min Rain = 0
KCR2 241245Z 07005KT 06/03 A3005 RMK A01 T00610033  RH  082%=      5-min Rain = 0
KCR2 241246Z 06006KT 06/03 A3005 RMK A01 T00610032  RH  081%=      5-min Rain = 0
KCR2 241247Z 06006KT 06/03 A3006 RMK A01 T00610030  RH  080%=      5-min Rain = 0
KCR2 241248Z 06005KT 06/03 A3006 RMK A01 T00610028  RH  079%=      5-min Rain = 0
KCR2 241249Z 06005KT 06/03 A3006 RMK A01 T00610028  RH  079%=      5-min Rain = 0
KCR2 241250Z 06006KT 06/03 A3006 RMK A01 T00610027  RH  079%=      5-min Rain = 0
KCR2 241251Z 06005KT 06/03 A3006 RMK A01 T00610028  RH  079%=      5-min Rain = 0
KCR2 241252Z 05006KT 06/03 A3006 RMK A01 T00610027  RH  079%=      5-min Rain = 0
KCR2 241253Z 04007KT 06/02 A3006 RMK A01 T00600023  RH  077%=      5-min Rain = 0
KCR2 241254Z 04008KT 06/02 A3006 RMK A01 T00600018  RH  075%=      5-min Rain = 0
KCR2 241255Z 05009KT 06/02 A3006 RMK A01 T00610015  RH  073%=      5-min Rain = 0
KCR2 241256Z 04009KT 06/01 A3006 RMK A01 T00620013  RH  071%=      5-min Rain = 0
KCR2 241257Z 04009KT 06/01 A3006 RMK A01 T00640008  RH  067%=      5-min Rain = 0
KCR2 241258Z 04007KT 07/01 A3006 RMK A01 T00670005  RH  064%=      5-min Rain = 0
KCR2 241259Z 04007KT 07/00 A3006 RMK A01 T00690002  RH  062%=      5-min Rain = 0
KCR2 241300Z 03008KT 07/M00 A3006 RMK A01 T00711003  RH  060%=      5-min Rain = 0
KCR2 241301Z 04009KT 07/M01 A3006 RMK A01 T00741007  RH  056%=      5-min Rain = 0
KCR2 241302Z 04010KT 08/M01 A3006 RMK A01 T00761012  RH  054%=      5-min Rain = 0
KCR2 241303Z 04007KT 08/M01 A3006 RMK A01 T00781013  RH  053%=      5-min Rain = 0
KCR2 241304Z 04007KT 08/M01 A3006 RMK A01 T00781011  RH  054%=      5-min Rain = 0
KCR2 241305Z 04007KT 08/M01 A3007 RMK A01 T00771012  RH  054%=      5-min Rain = 0
KCR2 241306Z 04007KT 08/M01 A3007 RMK A01 T00761010  RH  054%=      5-min Rain = 0
KCR2 241307Z 03007KT 07/M01 A3007 RMK A01 T00741010  RH  055%=      5-min Rain = 0
KCR2 241308Z 03007KT 07/M01 A3007 RMK A01 T00721009  RH  056%=      5-min Rain = 0
KCR2 241309Z 03008KT 07/M01 A3007 RMK A01 T00711010  RH  056%=      5-min Rain = 0
KCR2 241310Z 03008KT 07/M01 A3007 RMK A01 T00711013  RH  055%=      5-min Rain = 0
KCR2 241311Z 04006KT 07/M01 A3007 RMK A01 T00711012  RH  055%=      5-min Rain = 0
KCR2 241312Z 04006KT 07/M01 A3007 RMK A01 T00711013  RH  055%=      5-min Rain = 0
KCR2 241313Z 04007KT 07/M02 A3007 RMK A01 T00701016  RH  054%=      5-min Rain = 0
KCR2 241314Z 04006KT 07/M02 A3007 RMK A01 T00701016  RH  054%=      5-min Rain = 0
KCR2 241315Z 04006KT 07/M02 A3007 RMK A01 T00691015  RH  055%=      5-min Rain = 0
KCR2 241316Z 04006KT 07/M02 A3007 RMK A01 T00691018  RH  054%=      5-min Rain = 0
KCR2 241317Z 04006KT 07/M02 A3007 RMK A01 T00691020  RH  053%=      5-min Rain = 0
KCR2 241318Z 04006KT 07/M02 A3007 RMK A01 T00701020  RH  053%=      5-min Rain = 0
KCR2 241319Z 04006KT 07/M02 A3007 RMK A01 T00691020  RH  053%=      5-min Rain = 0
KCR2 241320Z 04007KT 07/M02 A3007 RMK A01 T00691021  RH  053%=      5-min Rain = 0
KCR2 241321Z 04007KT 07/M02 A3007 RMK A01 T00691023  RH  052%=      5-min Rain = 0
KCR2 241322Z 04008KT 07/M02 A3007 RMK A01 T00691024  RH  052%=      5-min Rain = 0
KCR2 241323Z 04007KT 07/M03 A3007 RMK A01 T00691028  RH  050%=      5-min Rain = 0
KCR2 241324Z 04007KT 07/M03 A3007 RMK A01 T00701029  RH  049%=      5-min Rain = 0
KCR2 241325Z 04007KT 07/M03 A3007 RMK A01 T00701029  RH  049%=      5-min Rain = 0
KCR2 241326Z 04007KT 07/M03 A3007 RMK A01 T00701029  RH  049%=      5-min Rain = 0
KCR2 241327Z 04006KT 07/M03 A3008 RMK A01 T00701028  RH  050%=      5-min Rain = 0
KCR2 241328Z 04007KT 07/M03 A3008 RMK A01 T00681028  RH  050%=      5-min Rain = 0
KCR2 241329Z 04007KT 07/M03 A3008 RMK A01 T00671029  RH  050%=      5-min Rain = 0
KCR2 241330Z 04007KT 07/M03 A3008 RMK A01 T00671029  RH  050%=      5-min Rain = 0
KCR2 241331Z 04007KT 07/M03 A3008 RMK A01 T00671031  RH  050%=      5-min Rain = 0
KCR2 241332Z 04007KT 07/M03 A3008 RMK A01 T00671032  RH  049%=      5-min Rain = 0
KCR2 241333Z 04008KT 07/M03 A3008 RMK A01 T00671032  RH  049%=      5-min Rain = 0
KCR2 241334Z 04008KT 07/M04 A3008 RMK A01 T00681035  RH  048%=      5-min Rain = 0
KCR2 241335Z 05007KT 07/M03 A3008 RMK A01 T00691033  RH  048%=      5-min Rain = 0
KCR2 241336Z 05007KT 07/M03 A3008 RMK A01 T00681032  RH  049%=      5-min Rain = 0
KCR2 241337Z 05007KT 07/M03 A3008 RMK A01 T00681034  RH  048%=      5-min Rain = 0
KCR2 241338Z 05007KT 07/M03 A3008 RMK A01 T00681032  RH  049%=      5-min Rain = 0
KCR2 241339Z 05007KT 07/M03 A3009 RMK A01 T00681033  RH  049%=      5-min Rain = 0
KCR2 241340Z 04007KT 07/M03 A3009 RMK A01 T00671031  RH  049%=      5-min Rain = 0
KCR2 241341Z 04006KT 07/M03 A3009 RMK A01 T00671032  RH  049%=      5-min Rain = 0
KCR2 241342Z 05006KT 07/M03 A3009 RMK A01 T00671032  RH  049%=      5-min Rain = 0
KCR2 241343Z 05006KT 07/M03 A3009 RMK A01 T00671032  RH  049%=      5-min Rain = 0
KCR2 241344Z 05008KT 07/M03 A3009 RMK A01 T00671032  RH  049%=      5-min Rain = 0
KCR2 241345Z 04007KT 07/M04 A3009 RMK A01 T00681035  RH  048%=      5-min Rain = 0
KCR2 241346Z 05006KT 07/M04 A3009 RMK A01 T00701035  RH  047%=      5-min Rain = 0
KCR2 241347Z 05007KT 07/M03 A3009 RMK A01 T00701034  RH  047%=      5-min Rain = 0
KCR2 241348Z 04007KT 07/M03 A3009 RMK A01 T00701033  RH  048%=      5-min Rain = 0
KCR2 241349Z 05008KT 07/M04 A3009 RMK A01 T00711035  RH  047%=      5-min Rain = 0
KCR2 241350Z 05008KT 07/M04 A3009 RMK A01 T00721036  RH  046%=      5-min Rain = 0
KCR2 241351Z 04008KT 07/M03 A3009 RMK A01 T00731033  RH  047%=      5-min Rain = 0
KCR2 241352Z 04008KT 07/M03 A3009 RMK A01 T00731032  RH  047%=      5-min Rain = 0
KCR2 241353Z 04007KT 07/M03 A3009 RMK A01 T00731033  RH  047%=      5-min Rain = 0
KCR2 241354Z 04008KT 07/M03 A301 RMK A01 T00731032  RH  048%=      5-min Rain = 0
KCR2 241355Z 04009KT 07/M03 A301 RMK A01 T00731033  RH  047%=      5-min Rain = 0
KCR2 241356Z 04008KT 07/M04 A301 RMK A01 T00741035  RH  046%=      5-min Rain = 0
KCR2 241357Z 04009KT 07/M03 A301 RMK A01 T00741033  RH  046%=      5-min Rain = 0
KCR2 241358Z 04009KT 07/M04 A301 RMK A01 T00741035  RH  046%=      5-min Rain = 0
KCR2 241359Z 04009KT 08/M04 A301 RMK A01 T00751035  RH  046%=      5-min Rain = 0
KCR2 241400Z 04009KT 08/M03 A301 RMK A01 T00751034  RH  046%=      5-min Rain = 0
KCR2 241401Z 04010KT 08/M04 A301 RMK A01 T00751035  RH  046%=      5-min Rain = 0
KCR2 241402Z 04009KT 08/M04 A301 RMK A01 T00751035  RH  046%=      5-min Rain = 0
KCR2 241403Z 04010KT 08/M04 A301 RMK A01 T00761035  RH  045%=      5-min Rain = 0
KCR2 241404Z 04010KT 08/M04 A301 RMK A01 T00761036  RH  045%=      5-min Rain = 0
KCR2 241405Z 04010KT 08/M03 A301 RMK A01 T00771034  RH  045%=      5-min Rain = 0
KCR2 241406Z 04010KT 08/M04 A301 RMK A01 T00771035  RH  045%=      5-min Rain = 0
KCR2 241407Z 04010KT 08/M03 A301 RMK A01 T00771034  RH  045%=      5-min Rain = 0
KCR2 241408Z 04009KT 08/M03 A301 RMK A01 T00781033  RH  046%=      5-min Rain = 0
KCR2 241409Z 04010KT 08/M03 A301 RMK A01 T00781033  RH  045%=      5-min Rain = 0
KCR2 241410Z 04010KT 08/M03 A301 RMK A01 T00781034  RH  045%=      5-min Rain = 0
KCR2 241411Z 04009KT 08/M03 A301 RMK A01 T00791033  RH  045%=      5-min Rain = 0
KCR2 241412Z 04009KT 08/M03 A3011 RMK A01 T00791033  RH  045%=      5-min Rain = 0
KCR2 241413Z 04010KT 08/M03 A3011 RMK A01 T00791033  RH  045%=      5-min Rain = 0
KCR2 241414Z 04011KT 08/M03 A3011 RMK A01 T00801034  RH  044%=      5-min Rain = 0
KCR2 241415Z 04010KT 08/M03 A3011 RMK A01 T00821032  RH  045%=      5-min Rain = 0
KCR2 241416Z 04011KT 08/M03 A3011 RMK A01 T00821033  RH  044%=      5-min Rain = 0
KCR2 241417Z 04011KT 08/M03 A3011 RMK A01 T00831032  RH  044%=      5-min Rain = 0
KCR2 241418Z 03012KT 08/M04 A3011 RMK A01 T00841035  RH  043%=      5-min Rain = 0
KCR2 241419Z 04011KT 09/M03 A3011 RMK A01 T00861034  RH  043%=      5-min Rain = 0
KCR2 241420Z 04012KT 09/M03 A3011 RMK A01 T00861033  RH  043%=      5-min Rain = 0
KCR2 241421Z 04011KT 09/M03 A3011 RMK A01 T00871033  RH  043%=      5-min Rain = 0
KCR2 241422Z 04011KT 09/M03 A3011 RMK A01 T00881033  RH  042%=      5-min Rain = 0
KCR2 241423Z 04010KT 09/M03 A3011 RMK A01 T00891033  RH  042%=      5-min Rain = 0
KCR2 241424Z 04011KT 09/M03 A3011 RMK A01 T00891032  RH  042%=      5-min Rain = 0
KCR2 241425Z 04010KT 09/M03 A3011 RMK A01 T00901031  RH  042%=      5-min Rain = 0
KCR2 241426Z 04009KT 09/M03 A3011 RMK A01 T00901028  RH  043%=      5-min Rain = 0
KCR2 241427Z 04008KT 09/M03 A3011 RMK A01 T00911027  RH  043%=      5-min Rain = 0
KCR2 241428Z 04010KT 09/M03 A3011 RMK A01 T00921028  RH  043%=      5-min Rain = 0
KCR2 241429Z 04009KT 09/M03 A3011 RMK A01 T00921030  RH  042%=      5-min Rain = 0
KCR2 241430Z 04010KT 09/M03 A3011 RMK A01 T00921029  RH  042%=      5-min Rain = 0
KCR2 241431Z 04010KT 09/M03 A3011 RMK A01 T00931030  RH  042%=      5-min Rain = 0
KCR2 241432Z 03009KT 09/M03 A3011 RMK A01 T00931031  RH  042%=      5-min Rain = 0
KCR2 241433Z 04010KT 09/M03 A3011 RMK A01 T00931031  RH  042%=      5-min Rain = 0
KCR2 241434Z 03011KT 09/M03 A3011 RMK A01 T00941030  RH  042%=      5-min Rain = 0
KCR2 241435Z 03012KT 10/M03 A3011 RMK A01 T00951031  RH  041%=      5-min Rain = 0
KCR2 241436Z 04012KT 10/M03 A3012 RMK A01 T00961031  RH  041%=      5-min Rain = 0
KCR2 241437Z 04011KT 10/M03 A3012 RMK A01 T00961028  RH  041%=      5-min Rain = 0
KCR2 241438Z 04012KT 10/M03 A3012 RMK A01 T00971030  RH  041%=      5-min Rain = 0
KCR2 241439Z 04012KT 10/M03 A3012 RMK A01 T00971028  RH  041%=      5-min Rain = 0
KCR2 241440Z 04012KT 10/M03 A3012 RMK A01 T00981030  RH  041%=      5-min Rain = 0
KCR2 241441Z 04012KT 10/M03 A3012 RMK A01 T00981027  RH  041%=      5-min Rain = 0
KCR2 241442Z 04011KT 10/M03 A3012 RMK A01 T00991028  RH  041%=      5-min Rain = 0
KCR2 241443Z 04010KT 10/M03 A3012 RMK A01 T01001027  RH  041%=      5-min Rain = 0
KCR2 241444Z 04012KT 10/M03 A3012 RMK A01 T01001026  RH  041%=      5-min Rain = 0
KCR2 241445Z 04014KT 10/M03 A3012 RMK A01 T00991028  RH  041%=      5-min Rain = 0
KCR2 241446Z 04012KT 10/M03 A3012 RMK A01 T00991030  RH  040%=      5-min Rain = 0
KCR2 241447Z 04012KT 10/M03 A3012 RMK A01 T00991028  RH  041%=      5-min Rain = 0
KCR2 241448Z 04014KT 10/M03 A3012 RMK A01 T00991030  RH  040%=      5-min Rain = 0
KCR2 241449Z 04012KT 10/M03 A3012 RMK A01 T01001029  RH  040%=      5-min Rain = 0
KCR2 241450Z 04013KT 10/M03 A3012 RMK A01 T00991028  RH  041%=      5-min Rain = 0
KCR2 241451Z 04014KT 10/M03 A3012 RMK A01 T01001028  RH  041%=      5-min Rain = 0
KCR2 241452Z 04013KT 10/M03 A3012 RMK A01 T01001029  RH  040%=      5-min Rain = 0
KCR2 241453Z 04013KT 10/M03 A3013 RMK A01 T01011029  RH  040%=      5-min Rain = 0
KCR2 241454Z 04014KT 10/M03 A3013 RMK A01 T01021029  RH  040%=      5-min Rain = 0
KCR2 241455Z 04012KT 10/M03 A3013 RMK A01 T01021028  RH  040%=      5-min Rain = 0
KCR2 241456Z 04012KT 10/M03 A3013 RMK A01 T01031026  RH  040%=      5-min Rain = 0
KCR2 241457Z 04012KT 10/M03 A3013 RMK A01 T01031028  RH  040%=      5-min Rain = 0
KCR2 241458Z 04011KT 10/M03 A3013 RMK A01 T01041027  RH  040%=      5-min Rain = 0
KCR2 241459Z 04012KT 10/M03 A3013 RMK A01 T01041027  RH  040%=      5-min Rain = 0
KCR2 241500Z 04010KT 10/M03 A3013 RMK A01 T01041026  RH  040%=      5-min Rain = 0
KCR2 241501Z 04012KT 10/M03 A3013 RMK A01 T01041026  RH  040%=      5-min Rain = 0
KCR2 241502Z 04012KT 11/M03 A3013 RMK A01 T01051027  RH  040%=      5-min Rain = 0
KCR2 241503Z 04011KT 11/M03 A3013 RMK A01 T01051027  RH  040%=      5-min Rain = 0
KCR2 241504Z 04013KT 11/M03 A3013 RMK A01 T01051028  RH  039%=      5-min Rain = 0
KCR2 241505Z 04012KT 11/M03 A3013 RMK A01 T01051027  RH  039%=      5-min Rain = 0
KCR2 241506Z 04011KT 11/M03 A3013 RMK A01 T01061027  RH  039%=      5-min Rain = 0
KCR2 241507Z 05014KT 11/M03 A3013 RMK A01 T01061026  RH  039%=      5-min Rain = 0
KCR2 241508Z 05011KT 11/M03 A3013 RMK A01 T01071025  RH  040%=      5-min Rain = 0
KCR2 241509Z 05013KT 11/M02 A3013 RMK A01 T01081023  RH  040%=      5-min Rain = 0
KCR2 241510Z 03013KT 11/M03 A3013 RMK A01 T01091026  RH  039%=      5-min Rain = 0
KCR2 241511Z 04013KT 11/M03 A3013 RMK A01 T01081026  RH  039%=      5-min Rain = 0
KCR2 241512Z 06013KT 11/M03 A3013 RMK A01 T01081027  RH  039%=      5-min Rain = 0
KCR2 241513Z 04013KT 11/M02 A3013 RMK A01 T01081024  RH  039%=      5-min Rain = 0
KCR2 241514Z 04013KT 11/M03 A3013 RMK A01 T01091025  RH  039%=      5-min Rain = 0
KCR2 241515Z 05013KT 11/M03 A3013 RMK A01 T01091025  RH  039%=      5-min Rain = 0
KCR2 241516Z 05015KT 11/M03 A3013 RMK A01 T01091026  RH  039%=      5-min Rain = 0
KCR2 241517Z 05015KT 11/M03 A3013 RMK A01 T01081027  RH  039%=      5-min Rain = 0
KCR2 241518Z 05014KT 11/M03 A3013 RMK A01 T01081026  RH  039%=      5-min Rain = 0
KCR2 241519Z 05014KT 11/M03 A3013 RMK A01 T01091026  RH  039%=      5-min Rain = 0
KCR2 241520Z 05012KT 11/M03 A3013 RMK A01 T01081026  RH  039%=      5-min Rain = 0
KCR2 241521Z 05016KT 11/M03 A3013 RMK A01 T01091025  RH  039%=      5-min Rain = 0
KCR2 241522Z 05015KT 11/M03 A3013 RMK A01 T01101027  RH  038%=      5-min Rain = 0
KCR2 241523Z 05013KT 11/M03 A3013 RMK A01 T01101026  RH  039%=      5-min Rain = 0
KCR2 241524Z 05012KT 11/M02 A3014 RMK A01 T01101024  RH  039%=      5-min Rain = 0
KCR2 241525Z 05015KT 11/M03 A3014 RMK A01 T01111025  RH  039%=      5-min Rain = 0
KCR2 241526Z 04016KT 11/M03 A3014 RMK A01 T01111026  RH  038%=      5-min Rain = 0
KCR2 241527Z 05013KT 11/M03 A3014 RMK A01 T01111027  RH  038%=      5-min Rain = 0
KCR2 241528Z 04012KT 11/M03 A3014 RMK A01 T01111027  RH  038%=      5-min Rain = 0
KCR2 241529Z 04012KT 11/M02 A3014 RMK A01 T01121023  RH  039%=      5-min Rain = 0
KCR2 241530Z 04012KT 11/M02 A3014 RMK A01 T01141022  RH  039%=      5-min Rain = 0
KCR2 241531Z 05013KT 12/M02 A3014 RMK A01 T01151024  RH  038%=      5-min Rain = 0
KCR2 241532Z 04012KT 12/M02 A3014 RMK A01 T01151022  RH  038%=      5-min Rain = 0
KCR2 241533Z 04014KT 12/M03 A3014 RMK A01 T01161026  RH  037%=      5-min Rain = 0
KCR2 241534Z 05013KT 12/M03 A3014 RMK A01 T01151026  RH  037%=      5-min Rain = 0
KCR2 241535Z 05012KT 12/M03 A3014 RMK A01 T01151026  RH  037%=      5-min Rain = 0
KCR2 241536Z 05010KT 12/M02 A3015 RMK A01 T01161022  RH  038%=      5-min Rain = 0
KCR2 241537Z 05012KT 12/M02 A3015 RMK A01 T01191022  RH  038%=      5-min Rain = 0
KCR2 241538Z 05014KT 12/M02 A3015 RMK A01 T01201022  RH  037%=      5-min Rain = 0
KCR2 241539Z 05015KT 12/M03 A3014 RMK A01 T01211025  RH  036%=      5-min Rain = 0
KCR2 241540Z 05013KT 12/M03 A3014 RMK A01 T01201026  RH  036%=      5-min Rain = 0
KCR2 241541Z 06012KT 12/M02 A3015 RMK A01 T01211024  RH  036%=      5-min Rain = 0
KCR2 241542Z 05012KT 12/M03 A3015 RMK A01 T01221025  RH  036%=      5-min Rain = 0
KCR2 241543Z 05014KT 12/M03 A3014 RMK A01 T01231025  RH  036%=      5-min Rain = 0
KCR2 241544Z 05012KT 12/M02 A3014 RMK A01 T01231023  RH  036%=      5-min Rain = 0
KCR2 241545Z 05015KT 12/M03 A3014 RMK A01 T01241026  RH  035%=      5-min Rain = 0
KCR2 241546Z 05015KT 12/M03 A3014 RMK A01 T01241026  RH  035%=      5-min Rain = 0
KCR2 241547Z 05012KT 12/M02 A3014 RMK A01 T01241023  RH  036%=      5-min Rain = 0
KCR2 241548Z 04017KT 13/M03 A3014 RMK A01 T01261025  RH  035%=      5-min Rain = 0
KCR2 241549Z 06017KT 13/M03 A3014 RMK A01 T01261027  RH  034%=      5-min Rain = 0
KCR2 241550Z 06017KT 13/M03 A3014 RMK A01 T01251029  RH  034%=      5-min Rain = 0
KCR2 241551Z 06017KT 12/M03 A3014 RMK A01 T01241028  RH  034%=      5-min Rain = 0
KCR2 241552Z 05015G20KT 13/M03 A3014 RMK A01 T01251027  RH  034%=      5-min Rain = 0
KCR2 241553Z 05017KT 13/M03 A3014 RMK A01 T01261028  RH  034%=      5-min Rain = 0
KCR2 241554Z 05018KT 13/M03 A3014 RMK A01 T01261029  RH  034%=      5-min Rain = 0
KCR2 241555Z 05017KT 13/M03 A3014 RMK A01 T01261029  RH  034%=      5-min Rain = 0
KCR2 241556Z 05018KT 13/M03 A3014 RMK A01 T01251030  RH  034%=      5-min Rain = 0
KCR2 241557Z 05016KT 13/M03 A3014 RMK A01 T01251031  RH  034%=      5-min Rain = 0
KCR2 241558Z 06018KT 13/M03 A3014 RMK A01 T01251030  RH  034%=      5-min Rain = 0
KCR2 241559Z 05016KT 13/M03 A3014 RMK A01 T01251030  RH  034%=      5-min Rain = 0
KCR2 241600Z 06014KT 13/M03 A3014 RMK A01 T01261029  RH  034%=      5-min Rain = 0
KCR2 241601Z 06014G19KT 13/M03 A3014 RMK A01 T01281026  RH  034%=      5-min Rain = 0
KCR2 241602Z 06017KT 13/M03 A3014 RMK A01 T01301027  RH  034%=      5-min Rain = 0
KCR2 241603Z 06017KT 13/M03 A3014 RMK A01 T01291028  RH  033%=      5-min Rain = 0
KCR2 241604Z 05016KT 13/M03 A3014 RMK A01 T01291028  RH  033%=      5-min Rain = 0
KCR2 241605Z 06015KT 13/M03 A3014 RMK A01 T01301028  RH  033%=      5-min Rain = 0
KCR2 241606Z 06014KT 13/M03 A3014 RMK A01 T01311025  RH  034%=      5-min Rain = 0
KCR2 241607Z 06016KT 13/M03 A3014 RMK A01 T01321027  RH  033%=      5-min Rain = 0
KCR2 241608Z 06014KT 13/M03 A3014 RMK A01 T01321026  RH  033%=      5-min Rain = 0
KCR2 241609Z 06014KT 13/M03 A3014 RMK A01 T01311026  RH  033%=      5-min Rain = 0
KCR2 241610Z 06015KT 13/M03 A3014 RMK A01 T01331027  RH  033%=      5-min Rain = 0
KCR2 241611Z 06013KT 13/M03 A3014 RMK A01 T01331026  RH  033%=      5-min Rain = 0
KCR2 241612Z 05014KT 13/M02 A3014 RMK A01 T01341023  RH  034%=      5-min Rain = 0
KCR2 241613Z 05015KT 13/M03 A3014 RMK A01 T01341026  RH  033%=      5-min Rain = 0
KCR2 241614Z 06016KT 13/M03 A3014 RMK A01 T01331027  RH  033%=      5-min Rain = 0
KCR2 241615Z 05015KT 13/M03 A3014 RMK A01 T01331028  RH  033%=      5-min Rain = 0
KCR2 241616Z 05013KT 13/M03 A3014 RMK A01 T01331027  RH  033%=      5-min Rain = 0
KCR2 241617Z 05015KT 13/M03 A3014 RMK A01 T01341026  RH  033%=      5-min Rain = 0
KCR2 241618Z 05015KT 13/M03 A3014 RMK A01 T01341028  RH  033%=      5-min Rain = 0
KCR2 241619Z 05013KT 13/M03 A3014 RMK A01 T01331027  RH  033%=      5-min Rain = 0
KCR2 241620Z 06015KT 14/M02 A3014 RMK A01 T01351024  RH  033%=      5-min Rain = 0
KCR2 241621Z 06015KT 14/M03 A3014 RMK A01 T01351026  RH  033%=      5-min Rain = 0
KCR2 241622Z 05016KT 14/M03 A3014 RMK A01 T01361025  RH  033%=      5-min Rain = 0
KCR2 241623Z 06015KT 14/M03 A3014 RMK A01 T01371026  RH  032%=      5-min Rain = 0
KCR2 241624Z 05012KT 14/M02 A3014 RMK A01 T01371024  RH  033%=      5-min Rain = 0
KCR2 241625Z 06014KT 14/M03 A3015 RMK A01 T01371026  RH  032%=      5-min Rain = 0
KCR2 241626Z 06014G19KT 14/M03 A3015 RMK A01 T01361026  RH  032%=      5-min Rain = 0
KCR2 241627Z 07014KT 14/M03 A3015 RMK A01 T01351027  RH  032%=      5-min Rain = 0
KCR2 241628Z 06014KT 13/M03 A3015 RMK A01 T01341027  RH  033%=      5-min Rain = 0
KCR2 241629Z 05015KT 13/M03 A3015 RMK A01 T01341027  RH  033%=      5-min Rain = 0
KCR2 241630Z 05013KT 13/M03 A3015 RMK A01 T01341026  RH  033%=      5-min Rain = 0
KCR2 241631Z 06012KT 14/M02 A3015 RMK A01 T01351024  RH  033%=      5-min Rain = 0
KCR2 241632Z 06014KT 14/M02 A3015 RMK A01 T01371024  RH  033%=      5-min Rain = 0
KCR2 241633Z 07014KT 14/M03 A3015 RMK A01 T01361028  RH  032%=      5-min Rain = 0
KCR2 241634Z 06015KT 14/M03 A3015 RMK A01 T01351026  RH  033%=      5-min Rain = 0
KCR2 241635Z 07015KT 14/M03 A3015 RMK A01 T01351027  RH  032%=      5-min Rain = 0
KCR2 241636Z 06013KT 14/M03 A3015 RMK A01 T01351027  RH  033%=      5-min Rain = 0
KCR2 241637Z 07013KT 14/M02 A3015 RMK A01 T01371021  RH  033%=      5-min Rain = 0
KCR2 241638Z 06014KT 14/M02 A3015 RMK A01 T01421021  RH  032%=      5-min Rain = 0
KCR2 241639Z 06014KT 14/M02 A3015 RMK A01 T01411024  RH  032%=      5-min Rain = 0
KCR2 241640Z 06015KT 14/M02 A3015 RMK A01 T01401023  RH  032%=      5-min Rain = 0
KCR2 241641Z 07014KT 14/M02 A3015 RMK A01 T01401023  RH  032%=      5-min Rain = 0
KCR2 241642Z 06013KT 14/M02 A3015 RMK A01 T01401024  RH  032%=      5-min Rain = 0
KCR2 241643Z 06014KT 14/M03 A3015 RMK A01 T01391025  RH  032%=      5-min Rain = 0
KCR2 241644Z 05014KT 14/M03 A3015 RMK A01 T01371027  RH  032%=      5-min Rain = 0
KCR2 241645Z 05015KT 14/M03 A3015 RMK A01 T01361026  RH  033%=      5-min Rain = 0
KCR2 241646Z 05014KT 14/M03 A3015 RMK A01 T01361026  RH  033%=      5-min Rain = 0
KCR2 241647Z 06013KT 14/M02 A3015 RMK A01 T01371023  RH  033%=      5-min Rain = 0
KCR2 241648Z 06013KT 14/M02 A3015 RMK A01 T01391023  RH  032%=      5-min Rain = 0
KCR2 241649Z 06012KT 14/M02 A3015 RMK A01 T01381024  RH  032%=      5-min Rain = 0
KCR2 241650Z 05011KT 14/M02 A3015 RMK A01 T01391022  RH  033%=      5-min Rain = 0
KCR2 241651Z 06012KT 14/M02 A3015 RMK A01 T01411021  RH  033%=      5-min Rain = 0
KCR2 241652Z 06014KT 14/M02 A3015 RMK A01 T01401024  RH  032%=      5-min Rain = 0
KCR2 241653Z 05013KT 14/M02 A3015 RMK A01 T01391024  RH  032%=      5-min Rain = 0
KCR2 241654Z 05011KT 14/M02 A3015 RMK A01 T01391021  RH  033%=      5-min Rain = 0
KCR2 241655Z 04010KT 14/M02 A3015 RMK A01 T01401023  RH  032%=      5-min Rain = 0
KCR2 241656Z 05010KT 14/M02 A3015 RMK A01 T01401022  RH  033%=      5-min Rain = 0
KCR2 241657Z 05011KT 14/M02 A3015 RMK A01 T01401023  RH  033%=      5-min Rain = 0
KCR2 241658Z 05012KT 14/M02 A3015 RMK A01 T01421018  RH  033%=      5-min Rain = 0
KCR2 241659Z 06013KT 15/M02 A3015 RMK A01 T01451019  RH  032%=      5-min Rain = 0
KCR2 241700Z 06012KT 15/M02 A3015 RMK A01 T01461019  RH  032%=      5-min Rain = 0
KCR2 241701Z 07012KT 15/M02 A3015 RMK A01 T01461021  RH  032%=      5-min Rain = 0
KCR2 241702Z 06014KT 15/M02 A3015 RMK A01 T01461021  RH  032%=      5-min Rain = 0
KCR2 241703Z 07013KT 15/M02 A3016 RMK A01 T01451022  RH  032%=      5-min Rain = 0
KCR2 241704Z 05011KT 14/M02 A3016 RMK A01 T01421024  RH  032%=      5-min Rain = 0
KCR2 241705Z 06010KT 14/M02 A3016 RMK A01 T01401022  RH  033%=      5-min Rain = 0
KCR2 241706Z 07009KT 14/M02 A3016 RMK A01 T01421022  RH  032%=      5-min Rain = 0
KCR2 241707Z 07012KT 14/M02 A3016 RMK A01 T01431022  RH  032%=      5-min Rain = 0
KCR2 241708Z 06012KT 14/M02 A3016 RMK A01 T01431022  RH  032%=      5-min Rain = 0
KCR2 241709Z 06012KT 14/M02 A3015 RMK A01 T01431022  RH  032%=      5-min Rain = 0
KCR2 241710Z 06013KT 14/M02 A3015 RMK A01 T01431023  RH  032%=      5-min Rain = 0
KCR2 241711Z 06012KT 14/M02 A3015 RMK A01 T01441021  RH  032%=      5-min Rain = 0
KCR2 241712Z 07011KT 15/M02 A3016 RMK A01 T01461020  RH  032%=      5-min Rain = 0
KCR2 241713Z 06010KT 15/M02 A3016 RMK A01 T01481020  RH  031%=      5-min Rain = 0
KCR2 241714Z 07008KT 15/M02 A3016 RMK A01 T01481022  RH  031%=      5-min Rain = 0
KCR2 241715Z 05010KT 15/M02 A3016 RMK A01 T01481018  RH  032%=      5-min Rain = 0
KCR2 241716Z 04010KT 15/M02 A3016 RMK A01 T01491022  RH  031%=      5-min Rain = 0
KCR2 241717Z 04009KT 15/M03 A3016 RMK A01 T01451025  RH  031%=      5-min Rain = 0
KCR2 241718Z 06013KT 15/M02 A3016 RMK A01 T01451021  RH  032%=      5-min Rain = 0
KCR2 241719Z 07011KT 15/M02 A3016 RMK A01 T01461024  RH  031%=      5-min Rain = 0
KCR2 241720Z 08010KT 14/M03 A3016 RMK A01 T01441025  RH  031%=      5-min Rain = 0
KCR2 241721Z 06012KT 15/M02 A3016 RMK A01 T01451021  RH  032%=      5-min Rain = 0
KCR2 241722Z 05013KT 15/M02 A3016 RMK A01 T01471021  RH  031%=      5-min Rain = 0
KCR2 241723Z 04011KT 15/M02 A3016 RMK A01 T01491021  RH  031%=      5-min Rain = 0
KCR2 241724Z 05009KT 15/M02 A3016 RMK A01 T01491022  RH  031%=      5-min Rain = 0
KCR2 241725Z 08009G15KT 15/M02 A3016 RMK A01 T01471023  RH  031%=      5-min Rain = 0
KCR2 241726Z 07012KT 15/M02 A3016 RMK A01 T01471024  RH  031%=      5-min Rain = 0
KCR2 241727Z 06011KT 15/M02 A3016 RMK A01 T01461024  RH  031%=      5-min Rain = 0
KCR2 241728Z 05010KT 15/M02 A3016 RMK A01 T01461024  RH  031%=      5-min Rain = 0
KCR2 241729Z 06008KT 15/M02 A3016 RMK A01 T01461024  RH  031%=      5-min Rain = 0
KCR2 241730Z 06010KT 15/M02 A3016 RMK A01 T01461023  RH  031%=      5-min Rain = 0
KCR2 241731Z 07012KT 15/M02 A3016 RMK A01 T01481021  RH  031%=      5-min Rain = 0
KCR2 241732Z 07011KT 15/M02 A3016 RMK A01 T01501021  RH  031%=      5-min Rain = 0
KCR2 241733Z 07010KT 15/M02 A3016 RMK A01 T01511021  RH  030%=      5-min Rain = 0
KCR2 241734Z 08010KT 15/M03 A3016 RMK A01 T01501025  RH  030%=      5-min Rain = 0
KCR2 241735Z 08010KT 15/M02 A3016 RMK A01 T01491021  RH  031%=      5-min Rain = 0
KCR2 241736Z 08007KT 15/M02 A3016 RMK A01 T01531020  RH  030%=      5-min Rain = 0
KCR2 241737Z 07007KT 15/M02 A3016 RMK A01 T01531020  RH  030%=      5-min Rain = 0
KCR2 241738Z 07007KT 15/M02 A3016 RMK A01 T01541019  RH  030%=      5-min Rain = 0
KCR2 241739Z 05005KT 15/M02 A3016 RMK A01 T01541021  RH  030%=      5-min Rain = 0
KCR2 241740Z 05005KT 15/M02 A3016 RMK A01 T01541019  RH  030%=      5-min Rain = 0
KCR2 241741Z 04010KT 15/M02 A3016 RMK A01 T01541020  RH  030%=      5-min Rain = 0
KCR2 241742Z 04008KT 15/M02 A3016 RMK A01 T01531024  RH  030%=      5-min Rain = 0
KCR2 241743Z 05008KT 15/M02 A3016 RMK A01 T01521022  RH  030%=      5-min Rain = 0
KCR2 241744Z 04007KT 15/M02 A3016 RMK A01 T01511023  RH  030%=      5-min Rain = 0
KCR2 241745Z 06008KT 15/M02 A3016 RMK A01 T01511022  RH  030%=      5-min Rain = 0
KCR2 241746Z 07007KT 15/M02 A3016 RMK A01 T01511022  RH  030%=      5-min Rain = 0
KCR2 241747Z 06007KT 15/M02 A3016 RMK A01 T01521022  RH  030%=      5-min Rain = 0
KCR2 241748Z 05006KT 15/M02 A3016 RMK A01 T01521022  RH  030%=      5-min Rain = 0
KCR2 241749Z 05009KT 15/M02 A3016 RMK A01 T01531018  RH  031%=      5-min Rain = 0
KCR2 241750Z 05005KT 15/M02 A3016 RMK A01 T01541019  RH  030%=      5-min Rain = 0
KCR2 241751Z 04007KT 16/M02 A3016 RMK A01 T01551018  RH  030%=      5-min Rain = 0
KCR2 241752Z 04008KT 16/M02 A3016 RMK A01 T01571017  RH  030%=      5-min Rain = 0
KCR2 241753Z 05007KT 16/M02 A3016 RMK A01 T01571021  RH  029%=      5-min Rain = 0
KCR2 241754Z 03007KT 16/M02 A3016 RMK A01 T01551022  RH  029%=      5-min Rain = 0
KCR2 241755Z 03005KT 15/M02 A3016 RMK A01 T01541023  RH  030%=      5-min Rain = 0
KCR2 241756Z 02004KT 16/M02 A3016 RMK A01 T01551021  RH  030%=      5-min Rain = 0
KCR2 241757Z 07007KT 16/M02 A3016 RMK A01 T01561019  RH  030%=      5-min Rain = 0
KCR2 241758Z 07008KT 16/M02 A3016 RMK A01 T01581020  RH  029%=      5-min Rain = 0
KCR2 241759Z 07009KT 16/M02 A3016 RMK A01 T01581019  RH  030%=      5-min Rain = 0
KCR2 241800Z 07006KT 16/M02 A3016 RMK A01 T01601020  RH  029%=      5-min Rain = 0
KCR2 241801Z 08004KT 16/M02 A3016 RMK A01 T01601020  RH  029%=      5-min Rain = 0
KCR2 241802Z 06004KT 16/M02 A3016 RMK A01 T01591024  RH  028%=      5-min Rain = 0
KCR2 241803Z 08007KT 16/M02 A3015 RMK A01 T01591020  RH  029%=      5-min Rain = 0
KCR2 241804Z 08009KT 16/M02 A3015 RMK A01 T01611021  RH  029%=      5-min Rain = 0
KCR2 241805Z 06006KT 16/M03 A3015 RMK A01 T01601025  RH  028%=      5-min Rain = 0
KCR2 241806Z 07005KT 16/M02 A3015 RMK A01 T01581021  RH  029%=      5-min Rain = 0
KCR2 241807Z 08006KT 16/M02 A3015 RMK A01 T01611018  RH  029%=      5-min Rain = 0
KCR2 241808Z 07006KT 16/M02 A3015 RMK A01 T01641015  RH  029%=      5-min Rain = 0
KCR2 241809Z 05009KT 17/M02 A3015 RMK A01 T01661019  RH  028%=      5-min Rain = 0
KCR2 241810Z 05009KT 16/M02 A3015 RMK A01 T01641020  RH  028%=      5-min Rain = 0
KCR2 241811Z 04009KT 16/M02 A3015 RMK A01 T01631018  RH  029%=      5-min Rain = 0
KCR2 241812Z 05007KT 16/M02 A3015 RMK A01 T01631019  RH  029%=      5-min Rain = 0
KCR2 241813Z 05005KT 16/M02 A3015 RMK A01 T01621021  RH  028%=      5-min Rain = 0
KCR2 241814Z 03004KT 16/M02 A3015 RMK A01 T01611022  RH  028%=      5-min Rain = 0
KCR2 241815Z 04005KT 16/M02 A3015 RMK A01 T01611023  RH  028%=      5-min Rain = 0
KCR2 241816Z 03006KT 16/M02 A3015 RMK A01 T01611023  RH  028%=      5-min Rain = 0
KCR2 241817Z 03007KT 16/M02 A3014 RMK A01 T01621023  RH  028%=      5-min Rain = 0
KCR2 241818Z 04006KT 16/M02 A3014 RMK A01 T01631024  RH  028%=      5-min Rain = 0
KCR2 241819Z 04007KT 16/M02 A3014 RMK A01 T01621021  RH  028%=      5-min Rain = 0
KCR2 241820Z 04008KT 16/M02 A3014 RMK A01 T01641020  RH  028%=      5-min Rain = 0
KCR2 241821Z 05006KT 16/M02 A3014 RMK A01 T01641021  RH  028%=      5-min Rain = 0
KCR2 241822Z 02005KT 16/M02 A3014 RMK A01 T01641021  RH  028%=      5-min Rain = 0
KCR2 241823Z 03004KT 17/M02 A3014 RMK A01 T01651015  RH  029%=      5-min Rain = 0
KCR2 241824Z 03006KT 17/M02 A3014 RMK A01 T01681017  RH  028%=      5-min Rain = 0
KCR2 241825Z 05005KT 17/M02 A3014 RMK A01 T01701017  RH  028%=      5-min Rain = 0
KCR2 241826Z 04004KT 17/M02 A3014 RMK A01 T01691021  RH  027%=      5-min Rain = 0
KCR2 241827Z 02007KT 17/M02 A3014 RMK A01 T01681018  RH  028%=      5-min Rain = 0
KCR2 241828Z 01007KT 17/M02 A3014 RMK A01 T01691018  RH  028%=      5-min Rain = 0
KCR2 241829Z 02007KT 17/M02 A3014 RMK A01 T01691020  RH  027%=      5-min Rain = 0
KCR2 241830Z 07005KT 17/M02 A3014 RMK A01 T01671020  RH  028%=      5-min Rain = 0
KCR2 241831Z 09008KT 17/M02 A3014 RMK A01 T01671019  RH  028%=      5-min Rain = 0
KCR2 241832Z 09007KT 17/M02 A3013 RMK A01 T01701019  RH  028%=      5-min Rain = 0
KCR2 241833Z 05008KT 17/M02 A3014 RMK A01 T01701018  RH  028%=      5-min Rain = 0
KCR2 241834Z 05006KT 17/M02 A3014 RMK A01 T01711017  RH  028%=      5-min Rain = 0
KCR2 241835Z 04007KT 17/M02 A3014 RMK A01 T01701020  RH  027%=      5-min Rain = 0
KCR2 241836Z 05005KT 17/M02 A3014 RMK A01 T01681021  RH  027%=      5-min Rain = 0
KCR2 241837Z 05003KT 17/M02 A3014 RMK A01 T01681015  RH  029%=      5-min Rain = 0
KCR2 241838Z 07003KT 17/M02 A3014 RMK A01 T01701020  RH  027%=      5-min Rain = 0
KCR2 241839Z 06004KT 17/M02 A3014 RMK A01 T01711021  RH  027%=      5-min Rain = 0
KCR2 241840Z 04006KT 17/M02 A3013 RMK A01 T01711020  RH  027%=      5-min Rain = 0
KCR2 241841Z 04005KT 17/M02 A3013 RMK A01 T01701021  RH  027%=      5-min Rain = 0
KCR2 241842Z 08007KT 17/M02 A3013 RMK A01 T01711017  RH  028%=      5-min Rain = 0
KCR2 241843Z 09006KT 17/M02 A3013 RMK A01 T01711022  RH  027%=      5-min Rain = 0
KCR2 241844Z 06004KT 17/M02 A3013 RMK A01 T01701023  RH  027%=      5-min Rain = 0
KCR2 241845Z 04002KT 17/M02 A3013 RMK A01 T01681023  RH  027%=      5-min Rain = 0
KCR2 241846Z 09003KT 17/M02 A3013 RMK A01 T01691018  RH  028%=      5-min Rain = 0
KCR2 241847Z 06002KT 17/M02 A3013 RMK A01 T01711020  RH  027%=      5-min Rain = 0
KCR2 241848Z 02002KT 17/M02 A3013 RMK A01 T01731015  RH  028%=      5-min Rain = 0
KCR2 241849Z 05004KT 18/M02 A3013 RMK A01 T01761015  RH  027%=      5-min Rain = 0
KCR2 241850Z 02004KT 18/M02 A3013 RMK A01 T01771017  RH  027%=      5-min Rain = 0
KCR2 241851Z 02002KT 18/M02 A3013 RMK A01 T01771016  RH  027%=      5-min Rain = 0
KCR2 241852Z 01004KT 18/M01 A3013 RMK A01 T01781014  RH  027%=      5-min Rain = 0
KCR2 241853Z 00005KT 18/M01 A3013 RMK A01 T01801014  RH  027%=      5-min Rain = 0
KCR2 241854Z 06006KT 18/M02 A3013 RMK A01 T01791016  RH  026%=      5-min Rain = 0
KCR2 241855Z 04004KT 18/M02 A3013 RMK A01 T01791015  RH  027%=      5-min Rain = 0
KCR2 241856Z 05006KT 18/M02 A3013 RMK A01 T01801015  RH  027%=      5-min Rain = 0
KCR2 241857Z 08008KT 18/M02 A3013 RMK A01 T01801017  RH  026%=      5-min Rain = 0
KCR2 241858Z 06006KT 18/M02 A3013 RMK A01 T01771021  RH  026%=      5-min Rain = 0
KCR2 241859Z 05006KT 18/M02 A3013 RMK A01 T01761019  RH  027%=      5-min Rain = 0
KCR2 241900Z 07005KT 18/M02 A3013 RMK A01 T01761020  RH  026%=      5-min Rain = 0
KCR2 241901Z 05005KT 18/M02 A3013 RMK A01 T01751022  RH  026%=      5-min Rain = 0
KCR2 241902Z 08002KT 17/M02 A3013 RMK A01 T01731023  RH  026%=      5-min Rain = 0
KCR2 241903Z 10002KT 17/M02 A3013 RMK A01 T01731020  RH  027%=      5-min Rain = 0
KCR2 241904Z 05004KT 17/M02 A3013 RMK A01 T01741021  RH  026%=      5-min Rain = 0
KCR2 241905Z 03005KT 18/M02 A3013 RMK A01 T01751020  RH  026%=      5-min Rain = 0
KCR2 241906Z 04005KT 18/M02 A3013 RMK A01 T01751020  RH  026%=      5-min Rain = 0
KCR2 241907Z 08003KT 18/M02 A3013 RMK A01 T01751020  RH  026%=      5-min Rain = 0
KCR2 241908Z 13003KT 18/M02 A3013 RMK A01 T01751022  RH  026%=      5-min Rain = 0
KCR2 241909Z 03003KT 18/M02 A3012 RMK A01 T01751021  RH  026%=      5-min Rain = 0
KCR2 241910Z 35005KT 18/M02 A3012 RMK A01 T01761020  RH  026%=      5-min Rain = 0
KCR2 241911Z 02006KT 18/M02 A3012 RMK A01 T01761020  RH  026%=      5-min Rain = 0
KCR2 241912Z 01004KT 18/M02 A3012 RMK A01 T01761021  RH  026%=      5-min Rain = 0
KCR2 241913Z 04007KT 18/M02 A3012 RMK A01 T01761019  RH  026%=      5-min Rain = 0
KCR2 241914Z 03005KT 18/M02 A3012 RMK A01 T01761020  RH  026%=      5-min Rain = 0
KCR2 241915Z 02003KT 18/M02 A3012 RMK A01 T01761019  RH  026%=      5-min Rain = 0
KCR2 241916Z 35002KT 18/M02 A3012 RMK A01 T01771021  RH  026%=      5-min Rain = 0
KCR2 241917Z 29001KT 18/M02 A3012 RMK A01 T01761021  RH  026%=      5-min Rain = 0
KCR2 241918Z 25001KT 18/M02 A3012 RMK A01 T01771019  RH  026%=      5-min Rain = 0
KCR2 241919Z 04003KT 18/M02 A3012 RMK A01 T01801017  RH  026%=      5-min Rain = 0
KCR2 241920Z 04005KT 18/M02 A3012 RMK A01 T01811018  RH  026%=      5-min Rain = 0
KCR2 241921Z 03005KT 18/M02 A3012 RMK A01 T01811018  RH  026%=      5-min Rain = 0
KCR2 241922Z 04005KT 18/M02 A3012 RMK A01 T01811019  RH  026%=      5-min Rain = 0
KCR2 241923Z 04005KT 18/M02 A3012 RMK A01 T01801020  RH  025%=      5-min Rain = 0
KCR2 241924Z 04005KT 18/M02 A3012 RMK A01 T01801023  RH  025%=      5-min Rain = 0
KCR2 241925Z 04003KT 18/M02 A3011 RMK A01 T01781023  RH  025%=      5-min Rain = 0
KCR2 241926Z 08001KT 18/M03 A3011 RMK A01 T01781025  RH  025%=      5-min Rain = 0
KCR2 241927Z 11001KT 18/M02 A3011 RMK A01 T01771023  RH  025%=      5-min Rain = 0
KCR2 241928Z 33001KT 18/M02 A3011 RMK A01 T01791022  RH  025%=      5-min Rain = 0
KCR2 241929Z 31002KT 18/M03 A3011 RMK A01 T01811025  RH  025%=      5-min Rain = 0
KCR2 241930Z 27001KT 18/M03 A3011 RMK A01 T01811028  RH  024%=      5-min Rain = 0
KCR2 241931Z 24000KT 18/M03 A3011 RMK A01 T01821028  RH  024%=      5-min Rain = 0
KCR2 241932Z 30002KT 18/M03 A3011 RMK A01 T01841026  RH  024%=      5-min Rain = 0
KCR2 241933Z 33005KT 19/M02 A3011 RMK A01 T01851020  RH  025%=      5-min Rain = 0
KCR2 241934Z 32004KT 18/M02 A3011 RMK A01 T01841019  RH  025%=      5-min Rain = 0
KCR2 241935Z 30002KT 18/M02 A3011 RMK A01 T01841019  RH  025%=      5-min Rain = 0
KCR2 241936Z 35002KT 18/M02 A3011 RMK A01 T01841017  RH  026%=      5-min Rain = 0
KCR2 241937Z 06004KT 19/M02 A301 RMK A01 T01861020  RH  025%=      5-min Rain = 0
KCR2 241938Z 06005KT 19/M02 A301 RMK A01 T01861021  RH  025%=      5-min Rain = 0
KCR2 241939Z 06004KT 19/M02 A301 RMK A01 T01851019  RH  025%=      5-min Rain = 0
KCR2 241940Z 08004KT 18/M02 A301 RMK A01 T01841018  RH  025%=      5-min Rain = 0
KCR2 241941Z 10003KT 18/M02 A301 RMK A01 T01841022  RH  025%=      5-min Rain = 0
KCR2 241942Z 11003KT 18/M02 A301 RMK A01 T01831021  RH  025%=      5-min Rain = 0
KCR2 241943Z 12002KT 18/M02 A301 RMK A01 T01831022  RH  025%=      5-min Rain = 0
KCR2 241944Z 05003KT 18/M02 A301 RMK A01 T01841019  RH  025%=      5-min Rain = 0
KCR2 241945Z 03005KT 19/M02 A301 RMK A01 T01851020  RH  025%=      5-min Rain = 0
KCR2 241946Z 36004KT 19/M02 A301 RMK A01 T01861019  RH  025%=      5-min Rain = 0
KCR2 241947Z 35005KT 19/M02 A301 RMK A01 T01861018  RH  025%=      5-min Rain = 0
KCR2 241948Z 00006KT 19/M02 A301 RMK A01 T01861021  RH  025%=      5-min Rain = 0
KCR2 241949Z 00003KT 18/M02 A301 RMK A01 T01841023  RH  024%=      5-min Rain = 0
KCR2 241950Z 36006KT 18/M02 A301 RMK A01 T01831021  RH  025%=      5-min Rain = 0
KCR2 241951Z 02006KT 18/M02 A301 RMK A01 T01841019  RH  025%=      5-min Rain = 0
KCR2 241952Z 01004KT 19/M02 A301 RMK A01 T01851020  RH  025%=      5-min Rain = 0
KCR2 241953Z 34004KT 19/M02 A301 RMK A01 T01861019  RH  025%=      5-min Rain = 0
KCR2 241954Z 33003KT 19/M02 A301 RMK A01 T01861022  RH  024%=      5-min Rain = 0
KCR2 241955Z 01005KT 19/M02 A301 RMK A01 T01871022  RH  024%=      5-min Rain = 0
KCR2 241956Z 01004KT 19/M02 A301 RMK A01 T01871022  RH  024%=      5-min Rain = 0
KCR2 241957Z 04003KT 19/M02 A301 RMK A01 T01871021  RH  024%=      5-min Rain = 0
KCR2 241958Z 01004KT 19/M02 A301 RMK A01 T01871020  RH  025%=      5-min Rain = 0
KCR2 241959Z 01002KT 19/M02 A301 RMK A01 T01881022  RH  024%=      5-min Rain = 0
KCR2 242000Z 00002KT 19/M02 A301 RMK A01 T01881021  RH  024%=      5-min Rain = 0
KCR2 242001Z 06000KT 19/M03 A301 RMK A01 T01881027  RH  023%=      5-min Rain = 0
KCR2 242002Z 15000KT 19/M03 A301 RMK A01 T01871027  RH  023%=      5-min Rain = 0
KCR2 242003Z 14001KT 19/M03 A301 RMK A01 T01881026  RH  023%=      5-min Rain = 0
KCR2 242004Z 13000KT 19/M03 A301 RMK A01 T01891025  RH  023%=      5-min Rain = 0
KCR2 242005Z 04001KT 19/M02 A301 RMK A01 T01901024  RH  023%=      5-min Rain = 0
KCR2 242006Z 03005KT 19/M02 A3009 RMK A01 T01911019  RH  024%=      5-min Rain = 0
KCR2 242007Z 04004KT 19/M02 A3009 RMK A01 T01911020  RH  024%=      5-min Rain = 0
KCR2 242008Z 06004KT 19/M02 A3009 RMK A01 T01911022  RH  024%=      5-min Rain = 0
KCR2 242009Z 04002KT 19/M02 A3009 RMK A01 T01891023  RH  024%=      5-min Rain = 0
KCR2 242010Z 03002KT 19/M02 A3009 RMK A01 T01891022  RH  024%=      5-min Rain = 0
KCR2 242011Z 04005KT 19/M02 A3009 RMK A01 T01901019  RH  024%=      5-min Rain = 0
KCR2 242012Z 05004KT 19/M02 A3009 RMK A01 T01911021  RH  024%=      5-min Rain = 0
KCR2 242013Z 05005KT 19/M02 A3009 RMK A01 T01921016  RH  024%=      5-min Rain = 0
KCR2 242014Z 03002KT 19/M02 A3009 RMK A01 T01931021  RH  023%=      5-min Rain = 0
KCR2 242015Z 06001KT 19/M02 A3009 RMK A01 T01931020  RH  024%=      5-min Rain = 0
KCR2 242016Z 35000KT 19/M02 A3009 RMK A01 T01941022  RH  023%=      5-min Rain = 0
KCR2 242017Z 03002KT 19/M02 A3009 RMK A01 T01941023  RH  023%=      5-min Rain = 0
KCR2 242018Z 26001KT 20/M02 A3009 RMK A01 T01951018  RH  024%=      5-min Rain = 0
KCR2 242019Z 25001KT 20/M02 A3009 RMK A01 T01971021  RH  023%=      5-min Rain = 0
KCR2 242020Z 26000KT 20/M02 A3009 RMK A01 T01981023  RH  022%=      5-min Rain = 0
KCR2 242021Z 06002KT 20/M02 A3009 RMK A01 T02001024  RH  022%=      5-min Rain = 0
KCR2 242022Z 05001KT 20/M03 A3009 RMK A01 T02001026  RH  022%=      5-min Rain = 0
KCR2 242023Z 03000KT 20/M03 A3009 RMK A01 T01991025  RH  022%=      5-min Rain = 0
KCR2 242024Z 05002KT 20/M02 A3008 RMK A01 T01991023  RH  022%=      5-min Rain = 0
KCR2 242025Z 04004KT 20/M02 A3008 RMK A01 T02001018  RH  023%=      5-min Rain = 0
KCR2 242026Z 02005KT 20/M02 A3008 RMK A01 T02001020  RH  023%=      5-min Rain = 0
KCR2 242027Z 01004KT 20/M02 A3008 RMK A01 T01991018  RH  023%=      5-min Rain = 0
KCR2 242028Z 34004KT 20/M02 A3008 RMK A01 T01991023  RH  022%=      5-min Rain = 0
KCR2 242029Z 00004KT 20/M02 A3008 RMK A01 T01971023  RH  023%=      5-min Rain = 0
KCR2 242030Z 01004KT 20/M02 A3008 RMK A01 T01951024  RH  023%=      5-min Rain = 0
KCR2 242031Z 02003KT 19/M03 A3008 RMK A01 T01931027  RH  022%=      5-min Rain = 0
KCR2 242032Z 04004KT 19/M02 A3008 RMK A01 T01931023  RH  023%=      5-min Rain = 0
KCR2 242033Z 03003KT 19/M03 A3008 RMK A01 T01931025  RH  023%=      5-min Rain = 0
KCR2 242034Z 01002KT 19/M02 A3008 RMK A01 T01931022  RH  023%=      5-min Rain = 0
KCR2 242035Z 07001KT 19/M02 A3008 RMK A01 T01941024  RH  023%=      5-min Rain = 0
KCR2 242036Z 04000KT 19/M03 A3008 RMK A01 T01941025  RH  022%=      5-min Rain = 0
KCR2 242037Z 25001KT 20/M02 A3008 RMK A01 T01951023  RH  023%=      5-min Rain = 0
KCR2 242038Z 24000KT 20/M03 A3008 RMK A01 T01951026  RH  022%=      5-min Rain = 0
KCR2 242039Z 35000KT 20/M03 A3008 RMK A01 T01961026  RH  022%=      5-min Rain = 0
KCR2 242040Z 36003KT 20/M02 A3008 RMK A01 T01981023  RH  022%=      5-min Rain = 0
KCR2 242041Z 36005KT 20/M02 A3008 RMK A01 T01991022  RH  022%=      5-min Rain = 0
KCR2 242042Z 01003KT 20/M02 A3008 RMK A01 T01971024  RH  022%=      5-min Rain = 0
KCR2 242043Z 02005KT 20/M02 A3008 RMK A01 T01961022  RH  023%=      5-min Rain = 0
KCR2 242044Z 36004KT 20/M02 A3008 RMK A01 T01961022  RH  023%=      5-min Rain = 0
KCR2 242045Z 04002KT 20/M03 A3008 RMK A01 T01961025  RH  022%=      5-min Rain = 0
KCR2 242046Z 36000KT 20/M03 A3008 RMK A01 T01951026  RH  022%=      5-min Rain = 0
KCR2 242047Z 29002KT 20/M02 A3008 RMK A01 T01961024  RH  023%=      5-min Rain = 0
KCR2 242048Z 32004KT 20/M02 A3008 RMK A01 T01971022  RH  023%=      5-min Rain = 0
KCR2 242049Z 33005KT 20/M02 A3008 RMK A01 T01981024  RH  022%=      5-min Rain = 0
KCR2 242050Z 01001KT 20/M02 A3008 RMK A01 T01971021  RH  023%=      5-min Rain = 0
KCR2 242051Z 32001KT 20/M02 A3008 RMK A01 T01981024  RH  022%=      5-min Rain = 0
KCR2 242052Z 25001KT 20/M03 A3008 RMK A01 T01991026  RH  022%=      5-min Rain = 0
KCR2 242053Z 26005KT 20/M02 A3008 RMK A01 T02011020  RH  022%=      5-min Rain = 0
KCR2 242054Z 27003KT 20/M02 A3008 RMK A01 T02021023  RH  022%=      5-min Rain = 0
KCR2 242055Z 29004KT 20/M02 A3008 RMK A01 T02011023  RH  022%=      5-min Rain = 0
KCR2 242056Z 28004KT 20/M03 A3008 RMK A01 T02001025  RH  022%=      5-min Rain = 0
KCR2 242057Z 30003KT 20/M02 A3008 RMK A01 T01981024  RH  022%=      5-min Rain = 0
KCR2 242058Z 01002KT 20/M02 A3008 RMK A01 T01981021  RH  023%=      5-min Rain = 0
KCR2 242059Z 35004KT 20/M03 A3008 RMK A01 T01991025  RH  022%=      5-min Rain = 0
KCR2 242100Z 01003KT 20/M03 A3007 RMK A01 T01981026  RH  022%=      5-min Rain = 0
KCR2 242101Z 03001KT 20/M02 A3007 RMK A01 T01971022  RH  023%=      5-min Rain = 0
KCR2 242102Z 03001KT 20/M02 A3007 RMK A01 T01981021  RH  023%=      5-min Rain = 0
KCR2 242103Z 04002KT 20/M02 A3007 RMK A01 T01991023  RH  022%=      5-min Rain = 0
KCR2 242104Z 06002KT 20/M03 A3007 RMK A01 T02001026  RH  022%=      5-min Rain = 0
KCR2 242105Z 05004KT 20/M03 A3007 RMK A01 T02001028  RH  021%=      5-min Rain = 0
KCR2 242106Z 08003KT 20/M02 A3007 RMK A01 T02001022  RH  022%=      5-min Rain = 0
KCR2 242107Z 05003KT 20/M02 A3007 RMK A01 T02021022  RH  022%=      5-min Rain = 0
KCR2 242108Z 02005KT 20/M02 A3007 RMK A01 T02031024  RH  022%=      5-min Rain = 0
KCR2 242109Z 01004KT 20/M02 A3007 RMK A01 T02021021  RH  022%=      5-min Rain = 0
KCR2 242110Z 34004KT 20/M03 A3007 RMK A01 T02021025  RH  021%=      5-min Rain = 0
KCR2 242111Z 01001KT 20/M02 A3007 RMK A01 T02011023  RH  022%=      5-min Rain = 0
KCR2 242112Z 11001KT 20/M02 A3007 RMK A01 T02021024  RH  022%=      5-min Rain = 0
KCR2 242113Z 35001KT 20/M02 A3007 RMK A01 T02041021  RH  022%=      5-min Rain = 0
KCR2 242114Z 02004KT 21/M02 A3007 RMK A01 T02051022  RH  022%=      5-min Rain = 0
KCR2 242115Z 02005KT 21/M02 A3007 RMK A01 T02051023  RH  021%=      5-min Rain = 0
KCR2 242116Z 01005KT 20/M02 A3007 RMK A01 T02031023  RH  022%=      5-min Rain = 0
KCR2 242117Z 01006KT 20/M02 A3007 RMK A01 T02031022  RH  022%=      5-min Rain = 0
KCR2 242118Z 34006KT 20/M03 A3007 RMK A01 T02021025  RH  022%=      5-min Rain = 0
KCR2 242119Z 02004KT 20/M02 A3007 RMK A01 T02011024  RH  022%=      5-min Rain = 0
KCR2 242120Z 03003KT 20/M03 A3007 RMK A01 T02001025  RH  022%=      5-min Rain = 0
KCR2 242121Z 05003KT 20/M03 A3007 RMK A01 T02001026  RH  022%=      5-min Rain = 0
KCR2 242122Z 06001KT 20/M03 A3007 RMK A01 T02001027  RH  021%=      5-min Rain = 0
KCR2 242123Z 06001KT 20/M02 A3007 RMK A01 T02001024  RH  022%=      5-min Rain = 0
KCR2 242124Z 05003KT 20/M02 A3007 RMK A01 T02011024  RH  022%=      5-min Rain = 0
KCR2 242125Z 04001KT 20/M02 A3007 RMK A01 T02021022  RH  022%=      5-min Rain = 0
KCR2 242126Z 06001KT 20/M03 A3007 RMK A01 T02021026  RH  021%=      5-min Rain = 0
KCR2 242127Z 07002KT 20/M03 A3007 RMK A01 T02031025  RH  021%=      5-min Rain = 0
KCR2 242128Z 07003KT 20/M02 A3007 RMK A01 T02031024  RH  022%=      5-min Rain = 0
KCR2 242129Z 11002KT 20/M02 A3007 RMK A01 T02031024  RH  021%=      5-min Rain = 0
KCR2 242130Z 04000KT 20/M02 A3007 RMK A01 T02041023  RH  022%=      5-min Rain = 0
KCR2 242131Z 09001KT 21/M02 A3007 RMK A01 T02051019  RH  022%=      5-min Rain = 0
KCR2 242132Z 08003KT 21/M02 A3007 RMK A01 T02071022  RH  021%=      5-min Rain = 0
KCR2 242133Z 09003KT 21/M02 A3007 RMK A01 T02071022  RH  021%=      5-min Rain = 0
KCR2 242134Z 11004KT 21/M03 A3007 RMK A01 T02061025  RH  021%=      5-min Rain = 0
KCR2 242135Z 15003KT 21/M03 A3006 RMK A01 T02051028  RH  021%=      5-min Rain = 0
KCR2 242136Z 17002KT 20/M03 A3006 RMK A01 T02041028  RH  021%=      5-min Rain = 0
KCR2 242137Z 16003KT 20/M03 A3006 RMK A01 T02041026  RH  021%=      5-min Rain = 0
KCR2 242138Z 16003KT 21/M02 A3006 RMK A01 T02051023  RH  021%=      5-min Rain = 0
KCR2 242139Z 17003KT 21/M03 A3006 RMK A01 T02061025  RH  021%=      5-min Rain = 0
KCR2 242140Z 17003KT 21/M02 A3006 RMK A01 T02061024  RH  021%=      5-min Rain = 0
KCR2 242141Z 15002KT 21/M03 A3006 RMK A01 T02071026  RH  021%=      5-min Rain = 0
KCR2 242142Z 17001KT 21/M03 A3006 RMK A01 T02071026  RH  021%=      5-min Rain = 0
KCR2 242143Z 20001KT 21/M03 A3006 RMK A01 T02071025  RH  021%=      5-min Rain = 0
KCR2 242144Z 16001KT 21/M03 A3006 RMK A01 T02081026  RH  020%=      5-min Rain = 0
KCR2 242145Z 26000KT 21/M03 A3006 RMK A01 T02091027  RH  020%=      5-min Rain = 0
KCR2 242146Z 19001KT 21/M03 A3006 RMK A01 T02091025  RH  021%=      5-min Rain = 0
KCR2 242147Z 19001KT 21/M03 A3006 RMK A01 T02101028  RH  020%=      5-min Rain = 0
KCR2 242148Z 20001KT 21/M03 A3006 RMK A01 T02111028  RH  020%=      5-min Rain = 0
KCR2 242149Z 14001KT 21/M03 A3006 RMK A01 T02111028  RH  020%=      5-min Rain = 0
KCR2 242150Z 20002KT 21/M03 A3006 RMK A01 T02111025  RH  020%=      5-min Rain = 0
KCR2 242151Z 21002KT 21/M03 A3006 RMK A01 T02111025  RH  020%=      5-min Rain = 0
KCR2 242152Z 21001KT 21/M03 A3006 RMK A01 T02111027  RH  020%=      5-min Rain = 0
KCR2 242153Z 21000KT 21/M03 A3006 RMK A01 T02121027  RH  020%=      5-min Rain = 0
KCR2 242154Z 26001KT 21/M03 A3006 RMK A01 T02121028  RH  020%=      5-min Rain = 0
KCR2 242155Z 32000KT 21/M02 A3006 RMK A01 T02131022  RH  021%=      5-min Rain = 0
KCR2 242156Z 31000KT 21/M03 A3006 RMK A01 T02131028  RH  020%=      5-min Rain = 0
KCR2 242157Z 03000KT 21/M03 A3006 RMK A01 T02121029  RH  020%=      5-min Rain = 0
KCR2 242158Z 06000KT 21/M03 A3006 RMK A01 T02121026  RH  020%=      5-min Rain = 0
KCR2 242159Z 02001KT 21/M02 A3006 RMK A01 T02131024  RH  020%=      5-min Rain = 0
KCR2 242200Z 28002KT 21/M02 A3006 RMK A01 T02141020  RH  021%=      5-min Rain = 0
KCR2 242201Z 31001KT 21/M03 A3006 RMK A01 T02141025  RH  020%=      5-min Rain = 0
KCR2 242202Z 32002KT 22/M03 A3006 RMK A01 T02151026  RH  020%=      5-min Rain = 0
KCR2 242203Z 01003KT 21/M02 A3006 RMK A01 T02141024  RH  020%=      5-min Rain = 0
KCR2 242204Z 01004KT 21/M02 A3006 RMK A01 T02141023  RH  020%=      5-min Rain = 0
KCR2 242205Z 02005KT 21/M02 A3006 RMK A01 T02111024  RH  020%=      5-min Rain = 0
KCR2 242206Z 04007KT 21/M02 A3006 RMK A01 T02101021  RH  021%=      5-min Rain = 0
KCR2 242207Z 05005KT 21/M03 A3006 RMK A01 T02091026  RH  020%=      5-min Rain = 0
KCR2 242208Z 04004KT 21/M02 A3006 RMK A01 T02071024  RH  021%=      5-min Rain = 0
KCR2 242209Z 03004KT 21/M02 A3006 RMK A01 T02061020  RH  022%=      5-min Rain = 0
KCR2 242210Z 04004KT 21/M02 A3006 RMK A01 T02071024  RH  021%=      5-min Rain = 0
KCR2 242211Z 02004KT 21/M02 A3005 RMK A01 T02071024  RH  021%=      5-min Rain = 0
KCR2 242212Z 01005KT 21/M02 A3005 RMK A01 T02071024  RH  021%=      5-min Rain = 0
KCR2 242213Z 02003KT 21/M02 A3005 RMK A01 T02071024  RH  021%=      5-min Rain = 0
KCR2 242214Z 02003KT 21/M02 A3005 RMK A01 T02071023  RH  021%=      5-min Rain = 0
KCR2 242215Z 02003KT 21/M03 A3005 RMK A01 T02071025  RH  021%=      5-min Rain = 0
KCR2 242216Z 05002KT 21/M03 A3005 RMK A01 T02071026  RH  021%=      5-min Rain = 0
KCR2 242217Z 05002KT 21/M03 A3005 RMK A01 T02071028  RH  020%=      5-min Rain = 0
KCR2 242218Z 05005KT 21/M03 A3005 RMK A01 T02081025  RH  021%=      5-min Rain = 0
KCR2 242219Z 06004KT 21/M03 A3005 RMK A01 T02071025  RH  021%=      5-min Rain = 0
KCR2 242220Z 06004KT 21/M02 A3005 RMK A01 T02081024  RH  021%=      5-min Rain = 0
KCR2 242221Z 06006KT 21/M03 A3005 RMK A01 T02081025  RH  021%=      5-min Rain = 0
KCR2 242222Z 04008KT 21/M03 A3005 RMK A01 T02081025  RH  021%=      5-min Rain = 0
KCR2 242223Z 04007KT 21/M02 A3005 RMK A01 T02081024  RH  021%=      5-min Rain = 0
KCR2 242224Z 04006KT 21/M03 A3005 RMK A01 T02081029  RH  020%=      5-min Rain = 0
KCR2 242225Z 01004KT 21/M03 A3005 RMK A01 T02071033  RH  020%=      5-min Rain = 0
KCR2 242226Z 02005KT 21/M03 A3005 RMK A01 T02071031  RH  020%=      5-min Rain = 0
KCR2 242227Z 01004KT 21/M03 A3005 RMK A01 T02061031  RH  020%=      5-min Rain = 0
KCR2 242228Z 00003KT 21/M03 A3005 RMK A01 T02061031  RH  020%=      5-min Rain = 0
KCR2 242229Z 01005KT 21/M03 A3005 RMK A01 T02061028  RH  020%=      5-min Rain = 0
KCR2 242230Z 01006KT 21/M03 A3005 RMK A01 T02071030  RH  020%=      5-min Rain = 0
KCR2 242231Z 01004KT 21/M03 A3005 RMK A01 T02071030  RH  020%=      5-min Rain = 0
KCR2 242232Z 03006KT 21/M03 A3005 RMK A01 T02071027  RH  020%=      5-min Rain = 0
KCR2 242233Z 03005KT 21/M03 A3005 RMK A01 T02081027  RH  020%=      5-min Rain = 0
KCR2 242234Z 02004KT 21/M03 A3004 RMK A01 T02091027  RH  020%=      5-min Rain = 0
KCR2 242235Z 02006KT 21/M03 A3004 RMK A01 T02091028  RH  020%=      5-min Rain = 0
KCR2 242236Z 02004KT 21/M03 A3004 RMK A01 T02091029  RH  020%=      5-min Rain = 0
KCR2 242237Z 03002KT 21/M03 A3004 RMK A01 T02081028  RH  020%=      5-min Rain = 0
KCR2 242238Z 03003KT 21/M03 A3004 RMK A01 T02071029  RH  020%=      5-min Rain = 0
KCR2 242239Z 03005KT 21/M03 A3004 RMK A01 T02071028  RH  020%=      5-min Rain = 0
KCR2 242240Z 02005KT 21/M03 A3004 RMK A01 T02081027  RH  020%=      5-min Rain = 0
KCR2 242241Z 02005KT 21/M03 A3004 RMK A01 T02091026  RH  021%=      5-min Rain = 0
KCR2 242242Z 01007KT 21/M03 A3004 RMK A01 T02091027  RH  020%=      5-min Rain = 0
KCR2 242243Z 01005KT 21/M03 A3004 RMK A01 T02091029  RH  020%=      5-min Rain = 0
KCR2 242244Z 01005KT 21/M03 A3004 RMK A01 T02081028  RH  020%=      5-min Rain = 0
KCR2 242245Z 04005KT 21/M02 A3003 RMK A01 T02101024  RH  021%=      5-min Rain = 0
KCR2 242246Z 03006KT 21/M02 A3003 RMK A01 T02111024  RH  021%=      5-min Rain = 0
KCR2 242247Z 02007KT 21/M03 A3003 RMK A01 T02121026  RH  020%=      5-min Rain = 0
KCR2 242248Z 04008KT 21/M03 A3003 RMK A01 T02111027  RH  020%=      5-min Rain = 0
KCR2 242249Z 03006KT 21/M03 A3003 RMK A01 T02101028  RH  020%=      5-min Rain = 0
KCR2 242250Z 04006KT 21/M03 A3003 RMK A01 T02101026  RH  020%=      5-min Rain = 0
KCR2 242251Z 03006KT 21/M03 A3003 RMK A01 T02101026  RH  020%=      5-min Rain = 0
KCR2 242252Z 02005KT 21/M03 A3003 RMK A01 T02101028  RH  020%=      5-min Rain = 0
KCR2 242253Z 04009KT 21/M03 A3003 RMK A01 T02101025  RH  020%=      5-min Rain = 0
KCR2 242254Z 04009KT 21/M03 A3003 RMK A01 T02111028  RH  020%=      5-min Rain = 0
KCR2 242255Z 05008KT 21/M03 A3003 RMK A01 T02111027  RH  020%=      5-min Rain = 0
KCR2 242256Z 05007KT 21/M03 A3003 RMK A01 T02101026  RH  020%=      5-min Rain = 0
KCR2 242257Z 04007KT 21/M03 A3003 RMK A01 T02111026  RH  020%=      5-min Rain = 0
KCR2 242258Z 03005KT 21/M03 A3003 RMK A01 T02111027  RH  020%=      5-min Rain = 0
KCR2 242259Z 05007KT 21/M02 A3003 RMK A01 T02111023  RH  021%=      5-min Rain = 0
KCR2 242300Z 04008KT 21/M03 A3003 RMK A01 T02121026  RH  020%=      5-min Rain = 0
KCR2 242301Z 04007KT 21/M03 A3003 RMK A01 T02131028  RH  020%=      5-min Rain = 0
KCR2 242302Z 04007KT 21/M03 A3003 RMK A01 T02121028  RH  020%=      5-min Rain = 0
KCR2 242303Z 04005KT 21/M03 A3003 RMK A01 T02121030  RH  020%=      5-min Rain = 0
KCR2 242304Z 04005KT 21/M03 A3003 RMK A01 T02111027  RH  020%=      5-min Rain = 0
KCR2 242305Z 05009KT 21/M03 A3003 RMK A01 T02111028  RH  020%=      5-min Rain = 0
KCR2 242306Z 05008KT 21/M03 A3003 RMK A01 T02111028  RH  020%=      5-min Rain = 0
KCR2 242307Z 05007KT 21/M03 A3003 RMK A01 T02111026  RH  020%=      5-min Rain = 0
KCR2 242308Z 05007KT 21/M03 A3003 RMK A01 T02121025  RH  020%=      5-min Rain = 0
KCR2 242309Z 06007KT 21/M03 A3003 RMK A01 T02121027  RH  020%=      5-min Rain = 0
KCR2 242310Z 07008KT 21/M03 A3003 RMK A01 T02121029  RH  020%=      5-min Rain = 0
KCR2 242311Z 06006KT 21/M03 A3003 RMK A01 T02111031  RH  020%=      5-min Rain = 0
KCR2 242312Z 07006KT 21/M03 A3003 RMK A01 T02111030  RH  020%=      5-min Rain = 0
KCR2 242313Z 07005KT 21/M03 A3003 RMK A01 T02111027  RH  020%=      5-min Rain = 0
KCR2 242314Z 07006KT 21/M03 A3003 RMK A01 T02111027  RH  020%=      5-min Rain = 0
KCR2 242315Z 06006KT 21/M03 A3003 RMK A01 T02111027  RH  020%=      5-min Rain = 0
KCR2 242316Z 05006KT 21/M03 A3003 RMK A01 T02111025  RH  020%=      5-min Rain = 0
KCR2 242317Z 05007KT 21/M02 A3003 RMK A01 T02111024  RH  020%=      5-min Rain = 0
KCR2 242318Z 05007KT 21/M02 A3003 RMK A01 T02121023  RH  021%=      5-min Rain = 0
KCR2 242319Z 06008KT 21/M02 A3003 RMK A01 T02131023  RH  020%=      5-min Rain = 0
KCR2 242320Z 06007KT 21/M03 A3003 RMK A01 T02131028  RH  020%=      5-min Rain = 0
KCR2 242321Z 07007KT 21/M03 A3003 RMK A01 T02121027  RH  020%=      5-min Rain = 0
KCR2 242322Z 08008KT 21/M03 A3003 RMK A01 T02111029  RH  020%=      5-min Rain = 0
KCR2 242323Z 07007KT 21/M03 A3003 RMK A01 T02111031  RH  020%=      5-min Rain = 0
KCR2 242324Z 06006KT 21/M03 A3003 RMK A01 T02111027  RH  020%=      5-min Rain = 0
KCR2 242325Z 05006KT 21/M03 A3003 RMK A01 T02121025  RH  020%=      5-min Rain = 0
KCR2 242326Z 07006KT 21/M03 A3003 RMK A01 T02121028  RH  020%=      5-min Rain = 0
KCR2 242327Z 07005KT 21/M03 A3003 RMK A01 T02121029  RH  020%=      5-min Rain = 0
KCR2 242328Z 06005KT 21/M03 A3003 RMK A01 T02121030  RH  020%=      5-min Rain = 0
KCR2 242329Z 05006KT 21/M03 A3003 RMK A01 T02121030  RH  019%=      5-min Rain = 0
KCR2 242330Z 04004KT 21/M03 A3003 RMK A01 T02121029  RH  020%=      5-min Rain = 0
KCR2 242331Z 05005KT 21/M03 A3003 RMK A01 T02121029  RH  020%=      5-min Rain = 0
KCR2 242332Z 06005KT 21/M03 A3003 RMK A01 T02121029  RH  020%=      5-min Rain = 0
KCR2 242333Z 07005KT 21/M03 A3003 RMK A01 T02121029  RH  020%=      5-min Rain = 0
KCR2 242334Z 08007KT 21/M03 A3003 RMK A01 T02121028  RH  020%=      5-min Rain = 0
KCR2 242335Z 07008KT 21/M03 A3003 RMK A01 T02121028  RH  020%=      5-min Rain = 0
KCR2 242336Z 08007KT 21/M03 A3003 RMK A01 T02121028  RH  020%=      5-min Rain = 0
KCR2 242337Z 08006KT 21/M03 A3003 RMK A01 T02121028  RH  020%=      5-min Rain = 0
KCR2 242338Z 08006KT 21/M03 A3003 RMK A01 T02121028  RH  020%=      5-min Rain = 0
KCR2 242339Z 09006KT 21/M03 A3003 RMK A01 T02121025  RH  020%=      5-min Rain = 0
KCR2 242340Z 08006KT 21/M03 A3003 RMK A01 T02121026  RH  020%=      5-min Rain = 0
KCR2 242341Z 08007KT 21/M03 A3003 RMK A01 T02121029  RH  020%=      5-min Rain = 0
KCR2 242342Z 08005KT 21/M03 A3003 RMK A01 T02121031  RH  019%=      5-min Rain = 0
KCR2 242343Z 07005KT 21/M03 A3003 RMK A01 T02111028  RH  020%=      5-min Rain = 0
KCR2 242344Z 07006KT 21/M03 A3003 RMK A01 T02111029  RH  020%=      5-min Rain = 0
KCR2 242345Z 07007KT 21/M03 A3003 RMK A01 T02111029  RH  020%=      5-min Rain = 0
KCR2 242346Z 07006KT 21/M03 A3003 RMK A01 T02101029  RH  020%=      5-min Rain = 0
KCR2 242347Z 07006KT 21/M03 A3003 RMK A01 T02101025  RH  020%=      5-min Rain = 0
KCR2 242348Z 06005KT 21/M02 A3003 RMK A01 T02101024  RH  021%=      5-min Rain = 0
KCR2 242349Z 07005KT 21/M02 A3003 RMK A01 T02101022  RH  021%=      5-min Rain = 0
KCR2 242350Z 07005KT 21/M02 A3003 RMK A01 T02101023  RH  021%=      5-min Rain = 0
KCR2 242351Z 06006KT 21/M02 A3003 RMK A01 T02101022  RH  021%=      5-min Rain = 0
KCR2 242352Z 06006KT 21/M02 A3003 RMK A01 T02101023  RH  021%=      5-min Rain = 0
KCR2 242353Z 07007KT 21/M02 A3003 RMK A01 T02101023  RH  021%=      5-min Rain = 0
KCR2 242354Z 08005KT 21/M03 A3003 RMK A01 T02091025  RH  021%=      5-min Rain = 0
KCR2 242355Z 09004KT 21/M02 A3003 RMK A01 T02101021  RH  021%=      5-min Rain = 0
KCR2 242356Z 09005KT 21/M02 A3003 RMK A01 T02091021  RH  021%=      5-min Rain = 0
KCR2 242357Z 09006KT 21/M03 A3003 RMK A01 T02091025  RH  021%=      5-min Rain = 0
KCR2 242358Z 09007KT 21/M03 A3003 RMK A01 T02101026  RH  020%=      5-min Rain = 0
KCR2 242359Z 09007KT 21/M03 A3003 RMK A01 T02101027  RH  020%=      5-min Rain = 0
KCR2 250000Z 10008KT 21/M03 A3003 RMK A01 T02101026  RH  020%=      5-min Rain = 0
KCR2 250001Z 10008KT 21/M03 A3003 RMK A01 T02091027  RH  020%=      5-min Rain = 0
KCR2 250002Z 10007KT 21/M03 A3003 RMK A01 T02091027  RH  020%=      5-min Rain = 0
KCR2 250003Z 09007KT 21/M03 A3003 RMK A01 T02081025  RH  021%=      5-min Rain = 0
KCR2 250004Z 08008KT 21/M02 A3003 RMK A01 T02081024  RH  021%=      5-min Rain = 0
KCR2 250005Z 08007KT 21/M03 A3003 RMK A01 T02081025  RH  021%=      5-min Rain = 0
KCR2 250006Z 08007KT 21/M03 A3003 RMK A01 T02071026  RH  021%=      5-min Rain = 0
KCR2 250007Z 10007KT 21/M03 A3003 RMK A01 T02071027  RH  021%=      5-min Rain = 0
KCR2 250008Z 09007KT 21/M03 A3003 RMK A01 T02071030  RH  020%=      5-min Rain = 0
KCR2 250009Z 09007KT 21/M03 A3003 RMK A01 T02071029  RH  020%=      5-min Rain = 0
KCR2 250010Z 10007KT 21/M03 A3003 RMK A01 T02071029  RH  020%=      5-min Rain = 0
KCR2 250011Z 09007KT 21/M03 A3003 RMK A01 T02061027  RH  021%=      5-min Rain = 0
KCR2 250012Z 09006KT 21/M03 A3003 RMK A01 T02051026  RH  021%=      5-min Rain = 0
KCR2 250013Z 09005KT 21/M03 A3003 RMK A01 T02051027  RH  021%=      5-min Rain = 0
KCR2 250014Z 09006KT 21/M03 A3003 RMK A01 T02061026  RH  021%=      5-min Rain = 0
KCR2 250015Z 08006KT 21/M03 A3003 RMK A01 T02051026  RH  021%=      5-min Rain = 0
KCR2 250016Z 07006KT 20/M02 A3003 RMK A01 T02041024  RH  021%=      5-min Rain = 0
KCR2 250017Z 08005KT 20/M02 A3003 RMK A01 T02041023  RH  022%=      5-min Rain = 0
KCR2 250018Z 08005KT 20/M02 A3003 RMK A01 T02031024  RH  022%=      5-min Rain = 0
KCR2 250019Z 08005KT 20/M02 A3003 RMK A01 T02031022  RH  022%=      5-min Rain = 0
KCR2 250020Z 08005KT 20/M02 A3003 RMK A01 T02021022  RH  022%=      5-min Rain = 0
KCR2 250021Z 08006KT 20/M02 A3003 RMK A01 T02011022  RH  022%=      5-min Rain = 0
KCR2 250022Z 08006KT 20/M02 A3003 RMK A01 T02011022  RH  022%=      5-min Rain = 0
KCR2 250023Z 08006KT 20/M02 A3003 RMK A01 T02001022  RH  022%=      5-min Rain = 0
KCR2 250024Z 08006KT 20/M02 A3003 RMK A01 T02001021  RH  022%=      5-min Rain = 0
KCR2 250025Z 08006KT 20/M02 A3003 RMK A01 T01991021  RH  023%=      5-min Rain = 0
KCR2 250026Z 08005KT 20/M02 A3003 RMK A01 T01981020  RH  023%=      5-min Rain = 0
KCR2 250027Z 08006KT 20/M02 A3003 RMK A01 T01971020  RH  023%=      5-min Rain = 0
KCR2 250028Z 08005KT 20/M02 A3003 RMK A01 T01961020  RH  023%=      5-min Rain = 0
KCR2 250029Z 08005KT 20/M02 A3003 RMK A01 T01951020  RH  023%=      5-min Rain = 0
KCR2 250030Z 08005KT 19/M02 A3003 RMK A01 T01941019  RH  024%=      5-min Rain = 0
KCR2 250031Z 08005KT 19/M02 A3003 RMK A01 T01931019  RH  024%=      5-min Rain = 0
KCR2 250032Z 08005KT 19/M02 A3003 RMK A01 T01921019  RH  024%=      5-min Rain = 0
KCR2 250033Z 08005KT 19/M02 A3003 RMK A01 T01921019  RH  024%=      5-min Rain = 0
KCR2 250034Z 08005KT 19/M02 A3003 RMK A01 T01911020  RH  024%=      5-min Rain = 0
KCR2 250035Z 08005KT 19/M02 A3003 RMK A01 T01901020  RH  024%=      5-min Rain = 0
KCR2 250036Z 07005KT 19/M02 A3003 RMK A01 T01891020  RH  024%=      5-min Rain = 0
KCR2 250037Z 07005KT 19/M02 A3003 RMK A01 T01891020  RH  024%=      5-min Rain = 0
KCR2 250038Z 07005KT 19/M02 A3004 RMK A01 T01881020  RH  024%=      5-min Rain = 0
KCR2 250039Z 07005KT 19/M02 A3004 RMK A01 T01881020  RH  024%=      5-min Rain = 0
KCR2 250040Z 07005KT 19/M02 A3004 RMK A01 T01871019  RH  025%=      5-min Rain = 0
KCR2 250041Z 07005KT 19/M02 A3004 RMK A01 T01861019  RH  025%=      5-min Rain = 0
KCR2 250042Z 08004KT 19/M02 A3004 RMK A01 T01851020  RH  025%=      5-min Rain = 0
KCR2 250043Z 08005KT 19/M02 A3004 RMK A01 T01851020  RH  025%=      5-min Rain = 0
KCR2 250044Z 08005KT 18/M02 A3004 RMK A01 T01841019  RH  025%=      5-min Rain = 0
KCR2 250045Z 08004KT 18/M02 A3004 RMK A01 T01831019  RH  025%=      5-min Rain = 0
KCR2 250046Z 08005KT 18/M02 A3004 RMK A01 T01821019  RH  025%=      5-min Rain = 0
KCR2 250047Z 08005KT 18/M02 A3004 RMK A01 T01821020  RH  025%=      5-min Rain = 0
KCR2 250048Z 08005KT 18/M02 A3004 RMK A01 T01811020  RH  025%=      5-min Rain = 0
KCR2 250049Z 08005KT 18/M02 A3004 RMK A01 T01811020  RH  025%=      5-min Rain = 0
KCR2 250050Z 09005KT 18/M02 A3004 RMK A01 T01801020  RH  026%=      5-min Rain = 0
KCR2 250051Z 09005KT 18/M02 A3004 RMK A01 T01791021  RH  026%=      5-min Rain = 0
KCR2 250052Z 09005KT 18/M02 A3004 RMK A01 T01791021  RH  026%=      5-min Rain = 0
KCR2 250053Z 09005KT 18/M02 A3004 RMK A01 T01791020  RH  026%=      5-min Rain = 0
KCR2 250054Z 09005KT 18/M02 A3004 RMK A01 T01781021  RH  026%=      5-min Rain = 0
KCR2 250055Z 08005KT 18/M02 A3004 RMK A01 T01781021  RH  026%=      5-min Rain = 0
KCR2 250056Z 08005KT 18/M02 A3004 RMK A01 T01771019  RH  026%=      5-min Rain = 0
KCR2 250057Z 08005KT 18/M02 A3004 RMK A01 T01761018  RH  027%=      5-min Rain = 0
KCR2 250058Z 08005KT 17/M02 A3004 RMK A01 T01741018  RH  027%=      5-min Rain = 0
KCR2 250059Z 08005KT 17/M02 A3004 RMK A01 T01731017  RH  027%=      5-min Rain = 0
KCR2 250100Z 08005KT 17/M02 A3004 RMK A01 T01711017  RH  028%=      5-min Rain = 0
KCR2 250101Z 08005KT 17/M02 A3005 RMK A01 T01701018  RH  028%=      5-min Rain = 0
KCR2 250102Z 08005KT 17/M02 A3005 RMK A01 T01701018  RH  028%=      5-min Rain = 0
KCR2 250103Z 08006KT 17/M02 A3005 RMK A01 T01701018  RH  028%=      5-min Rain = 0
KCR2 250104Z 08006KT 17/M02 A3005 RMK A01 T01691019  RH  028%=      5-min Rain = 0
KCR2 250105Z 09006KT 17/M02 A3005 RMK A01 T01691019  RH  028%=      5-min Rain = 0
KCR2 250106Z 09006KT 17/M02 A3005 RMK A01 T01681017  RH  028%=      5-min Rain = 0
KCR2 250107Z 09006KT 17/M02 A3005 RMK A01 T01661017  RH  029%=      5-min Rain = 0
KCR2 250108Z 10006KT 17/M02 A3005 RMK A01 T01651017  RH  029%=      5-min Rain = 0
KCR2 250109Z 10006KT 16/M02 A3005 RMK A01 T01641017  RH  029%=      5-min Rain = 0
KCR2 250110Z 09006KT 16/M02 A3005 RMK A01 T01641017  RH  029%=      5-min Rain = 0
KCR2 250111Z 09006KT 16/M02 A3005 RMK A01 T01641017  RH  029%=      5-min Rain = 0
KCR2 250112Z 10006KT 16/M02 A3005 RMK A01 T01631015  RH  030%=      5-min Rain = 0
KCR2 250113Z 10005KT 16/M02 A3005 RMK A01 T01611016  RH  030%=      5-min Rain = 0
KCR2 250114Z 10006KT 16/M02 A3005 RMK A01 T01611016  RH  030%=      5-min Rain = 0
KCR2 250115Z 10005KT 16/M02 A3005 RMK A01 T01601015  RH  030%=      5-min Rain = 0
KCR2 250116Z 10006KT 16/M02 A3005 RMK A01 T01581016  RH  030%=      5-min Rain = 0
KCR2 250117Z 09006KT 16/M02 A3005 RMK A01 T01581017  RH  030%=      5-min Rain = 0
KCR2 250118Z 09006KT 16/M02 A3005 RMK A01 T01581017  RH  030%=      5-min Rain = 0
KCR2 250119Z 10006KT 16/M02 A3005 RMK A01 T01581017  RH  030%=      5-min Rain = 0
KCR2 250120Z 10006KT 16/M02 A3005 RMK A01 T01581016  RH  030%=      5-min Rain = 0
KCR2 250121Z 10007KT 16/M02 A3005 RMK A01 T01571016  RH  030%=      5-min Rain = 0
KCR2 250122Z 10006KT 16/M02 A3005 RMK A01 T01571016  RH  031%=      5-min Rain = 0
KCR2 250123Z 10006KT 16/M02 A3005 RMK A01 T01561015  RH  031%=      5-min Rain = 0
KCR2 250124Z 09006KT 16/M02 A3005 RMK A01 T01551015  RH  031%=      5-min Rain = 0
KCR2 250125Z 09005KT 15/M01 A3005 RMK A01 T01541014  RH  031%=      5-min Rain = 0
KCR2 250126Z 09005KT 15/M02 A3005 RMK A01 T01541015  RH  031%=      5-min Rain = 0
KCR2 250127Z 09005KT 15/M02 A3005 RMK A01 T01531015  RH  032%=      5-min Rain = 0
KCR2 250128Z 08006KT 15/M02 A3005 RMK A01 T01521015  RH  032%=      5-min Rain = 0
KCR2 250129Z 09006KT 15/M02 A3005 RMK A01 T01511015  RH  032%=      5-min Rain = 0
KCR2 250130Z 09006KT 15/M01 A3005 RMK A01 T01501012  RH  033%=      5-min Rain = 0
KCR2 250131Z 09006KT 15/M01 A3005 RMK A01 T01481012  RH  033%=      5-min Rain = 0
KCR2 250132Z 09006KT 15/M01 A3005 RMK A01 T01471013  RH  033%=      5-min Rain = 0
KCR2 250133Z 08006KT 15/M01 A3005 RMK A01 T01461013  RH  034%=      5-min Rain = 0
KCR2 250134Z 08006KT 15/M01 A3005 RMK A01 T01451013  RH  034%=      5-min Rain = 0
KCR2 250135Z 08006KT 14/M01 A3005 RMK A01 T01441013  RH  034%=      5-min Rain = 0
KCR2 250136Z 08006KT 14/M01 A3005 RMK A01 T01431012  RH  034%=      5-min Rain = 0
KCR2 250137Z 08007KT 14/M01 A3005 RMK A01 T01421012  RH  035%=      5-min Rain = 0
KCR2 250138Z 09007KT 14/M01 A3005 RMK A01 T01411012  RH  035%=      5-min Rain = 0
KCR2 250139Z 09007KT 14/M01 A3005 RMK A01 T01411012  RH  035%=      5-min Rain = 0
KCR2 250140Z 09007KT 14/M01 A3005 RMK A01 T01411012  RH  035%=      5-min Rain = 0
KCR2 250141Z 09007KT 14/M01 A3005 RMK A01 T01411012  RH  035%=      5-min Rain = 0
KCR2 250142Z 09007KT 14/M01 A3005 RMK A01 T01411011  RH  035%=      5-min Rain = 0
KCR2 250143Z 09007KT 14/M01 A3005 RMK A01 T01401010  RH  035%=      5-min Rain = 0
KCR2 250144Z 09007KT 14/M01 A3005 RMK A01 T01391010  RH  036%=      5-min Rain = 0
KCR2 250145Z 09007KT 14/M01 A3006 RMK A01 T01381010  RH  036%=      5-min Rain = 0
KCR2 250146Z 09007KT 14/M01 A3006 RMK A01 T01371009  RH  036%=      5-min Rain = 0
KCR2 250147Z 09007KT 14/M01 A3006 RMK A01 T01361009  RH  037%=      5-min Rain = 0
KCR2 250148Z 08007KT 14/M01 A3006 RMK A01 T01351009  RH  037%=      5-min Rain = 0
KCR2 250149Z 08007KT 13/M01 A3006 RMK A01 T01341009  RH  037%=      5-min Rain = 0
KCR2 250150Z 08007KT 13/M01 A3005 RMK A01 T01331008  RH  038%=      5-min Rain = 0
KCR2 250151Z 08007KT 13/M01 A3005 RMK A01 T01321008  RH  038%=      5-min Rain = 0
KCR2 250152Z 09007KT 13/M01 A3005 RMK A01 T01321007  RH  038%=      5-min Rain = 0
KCR2 250153Z 09007KT 13/M01 A3006 RMK A01 T01311007  RH  038%=      5-min Rain = 0
KCR2 250154Z 09007KT 13/M01 A3006 RMK A01 T01301008  RH  039%=      5-min Rain = 0
KCR2 250155Z 09007KT 13/M01 A3006 RMK A01 T01301008  RH  039%=      5-min Rain = 0
KCR2 250156Z 09007KT 13/M01 A3006 RMK A01 T01291008  RH  039%=      5-min Rain = 0
KCR2 250157Z 09007KT 13/M01 A3006 RMK A01 T01281008  RH  039%=      5-min Rain = 0
KCR2 250158Z 09006KT 13/M01 A3006 RMK A01 T01281007  RH  039%=      5-min Rain = 0
KCR2 250159Z 09006KT 13/M01 A3006 RMK A01 T01271008  RH  039%=      5-min Rain = 0
KCR2 250200Z 09006KT 13/M01 A3006 RMK A01 T01261007  RH  040%=      5-min Rain = 0
KCR2 250201Z 09006KT 13/M01 A3006 RMK A01 T01261007  RH  040%=      5-min Rain = 0
KCR2 250202Z 09006KT 13/M01 A3006 RMK A01 T01251007  RH  040%=      5-min Rain = 0
KCR2 250203Z 08006KT 12/M01 A3006 RMK A01 T01241007  RH  040%=      5-min Rain = 0
KCR2 250204Z 08006KT 12/M01 A3006 RMK A01 T01231007  RH  041%=      5-min Rain = 0
KCR2 250205Z 08006KT 12/M01 A3006 RMK A01 T01221006  RH  041%=      5-min Rain = 0
KCR2 250206Z 08006KT 12/M01 A3006 RMK A01 T01221006  RH  041%=      5-min Rain = 0
KCR2 250207Z 09006KT 12/M01 A3006 RMK A01 T01221006  RH  041%=      5-min Rain = 0
KCR2 250208Z 09006KT 12/M01 A3006 RMK A01 T01221006  RH  041%=      5-min Rain = 0
KCR2 250209Z 09007KT 12/M01 A3006 RMK A01 T01221006  RH  041%=      5-min Rain = 0
KCR2 250210Z 09006KT 12/M01 A3006 RMK A01 T01221006  RH  041%=      5-min Rain = 0
KCR2 250211Z 09006KT 12/M01 A3006 RMK A01 T01211006  RH  041%=      5-min Rain = 0
KCR2 250212Z 09006KT 12/M01 A3006 RMK A01 T01201006  RH  042%=      5-min Rain = 0
KCR2 250213Z 09006KT 12/M01 A3006 RMK A01 T01191005  RH  042%=      5-min Rain = 0
KCR2 250214Z 09006KT 12/M01 A3007 RMK A01 T01181005  RH  043%=      5-min Rain = 0
KCR2 250215Z 09005KT 12/M01 A3007 RMK A01 T01161005  RH  043%=      5-min Rain = 0
KCR2 250216Z 09005KT 12/M01 A3007 RMK A01 T01161005  RH  043%=      5-min Rain = 0
KCR2 250217Z 10006KT 12/M01 A3007 RMK A01 T01151005  RH  043%=      5-min Rain = 0
KCR2 250218Z 10006KT 12/M00 A3007 RMK A01 T01151004  RH  044%=      5-min Rain = 0
KCR2 250219Z 10006KT 11/M00 A3007 RMK A01 T01141004  RH  044%=      5-min Rain = 0
KCR2 250220Z 10005KT 11/M00 A3007 RMK A01 T01131004  RH  044%=      5-min Rain = 0
KCR2 250221Z 10006KT 11/M00 A3007 RMK A01 T01131004  RH  045%=      5-min Rain = 0
KCR2 250222Z 10006KT 11/M00 A3007 RMK A01 T01121003  RH  045%=      5-min Rain = 0
KCR2 250223Z 10006KT 11/M00 A3007 RMK A01 T01111003  RH  045%=      5-min Rain = 0
KCR2 250224Z 10006KT 11/M00 A3006 RMK A01 T01111003  RH  045%=      5-min Rain = 0
KCR2 250225Z 10006KT 11/M00 A3006 RMK A01 T01101003  RH  045%=      5-min Rain = 0
KCR2 250226Z 10006KT 11/M00 A3006 RMK A01 T01101003  RH  046%=      5-min Rain = 0
KCR2 250227Z 10006KT 11/M00 A3007 RMK A01 T01091003  RH  046%=      5-min Rain = 0
KCR2 250228Z 10006KT 11/M00 A3007 RMK A01 T01091002  RH  046%=      5-min Rain = 0
KCR2 250229Z 10006KT 11/M00 A3007 RMK A01 T01081002  RH  046%=      5-min Rain = 0
KCR2 250230Z 09006KT 11/M00 A3007 RMK A01 T01071002  RH  047%=      5-min Rain = 0
KCR2 250231Z 09007KT 11/M00 A3007 RMK A01 T01071002  RH  047%=      5-min Rain = 0
KCR2 250232Z 10007KT 11/M00 A3007 RMK A01 T01061003  RH  047%=      5-min Rain = 0
KCR2 250233Z 10007KT 11/M00 A3007 RMK A01 T01061003  RH  047%=      5-min Rain = 0
KCR2 250234Z 10007KT 11/M00 A3007 RMK A01 T01051002  RH  047%=      5-min Rain = 0
KCR2 250235Z 10007KT 11/M00 A3007 RMK A01 T01051002  RH  048%=      5-min Rain = 0
KCR2 250236Z 10006KT 10/M00 A3007 RMK A01 T01041001  RH  048%=      5-min Rain = 0
KCR2 250237Z 10006KT 10/M00 A3007 RMK A01 T01041001  RH  048%=      5-min Rain = 0
KCR2 250238Z 10007KT 10/M00 A3007 RMK A01 T01041001  RH  048%=      5-min Rain = 0
KCR2 250239Z 09007KT 10/M00 A3007 RMK A01 T01041001  RH  048%=      5-min Rain = 0
KCR2 250240Z 09007KT 10/M00 A3007 RMK A01 T01041001  RH  048%=      5-min Rain = 0
KCR2 250241Z 09007KT 10/M00 A3007 RMK A01 T01031001  RH  048%=      5-min Rain = 0
KCR2 250242Z 09007KT 10/M00 A3007 RMK A01 T01031001  RH  049%=      5-min Rain = 0
KCR2 250243Z 09006KT 10/00 A3007 RMK A01 T010300-0  RH  049%=      5-min Rain = 0
KCR2 250244Z 09006KT 10/00 A3007 RMK A01 T01030000  RH  049%=      5-min Rain = 0
KCR2 250245Z 09006KT 10/00 A3007 RMK A01 T01020000  RH  049%=      5-min Rain = 0
KCR2 250246Z 09006KT 10/00 A3007 RMK A01 T01040001  RH  049%=      5-min Rain = 0
KCR2 250247Z 09006KT 10/00 A3007 RMK A01 T01040000  RH  049%=      5-min Rain = 0
KCR2 250248Z 09006KT 10/00 A3007 RMK A01 T01040000  RH  049%=      5-min Rain = 0
KCR2 250249Z 09006KT 10/00 A3007 RMK A01 T010400-0  RH  048%=      5-min Rain = 0
KCR2 250250Z 09006KT 10/00 A3007 RMK A01 T01040000  RH  049%=      5-min Rain = 0
KCR2 250251Z 09005KT 10/00 A3007 RMK A01 T01040000  RH  049%=      5-min Rain = 0
KCR2 250252Z 09005KT 10/00 A3007 RMK A01 T01040000  RH  049%=      5-min Rain = 0
KCR2 250253Z 09005KT 10/00 A3007 RMK A01 T01040000  RH  049%=      5-min Rain = 0
KCR2 250254Z 09006KT 10/00 A3008 RMK A01 T01040001  RH  049%=      5-min Rain = 0
KCR2 250255Z 09006KT 10/00 A3008 RMK A01 T01040001  RH  049%=      5-min Rain = 0
KCR2 250256Z 09006KT 10/00 A3008 RMK A01 T01040001  RH  049%=      5-min Rain = 0
KCR2 250257Z 09006KT 10/00 A3008 RMK A01 T01040002  RH  049%=      5-min Rain = 0
KCR2 250258Z 09006KT 10/00 A3008 RMK A01 T01040001  RH  049%=      5-min Rain = 0
KCR2 250259Z 09006KT 10/00 A3008 RMK A01 T01040001  RH  049%=      5-min Rain = 0
KCR2 250300Z 09007KT 10/00 A3008 RMK A01 T01030001  RH  049%=      5-min Rain = 0
KCR2 250301Z 09007KT 10/00 A3008 RMK A01 T01030001  RH  049%=      5-min Rain = 0
KCR2 250302Z 09007KT 10/00 A3008 RMK A01 T01040001  RH  049%=      5-min Rain = 0
KCR2 250303Z 09007KT 10/00 A3008 RMK A01 T01040002  RH  049%=      5-min Rain = 0
KCR2 250304Z 09007KT 10/00 A3008 RMK A01 T01040002  RH  049%=      5-min Rain = 0
KCR2 250305Z 08007KT 11/00 A3008 RMK A01 T01050002  RH  049%=      5-min Rain = 0
KCR2 250306Z 08007KT 11/00 A3008 RMK A01 T01060003  RH  049%=      5-min Rain = 0
KCR2 250307Z 09007KT 11/00 A3008 RMK A01 T01060003  RH  049%=      5-min Rain = 0
KCR2 250308Z 08007KT 11/00 A3008 RMK A01 T01070003  RH  049%=      5-min Rain = 0
KCR2 250309Z 08007KT 11/00 A3008 RMK A01 T01080003  RH  048%=      5-min Rain = 0
KCR2 250310Z 08007KT 11/00 A3008 RMK A01 T01080003  RH  048%=      5-min Rain = 0
KCR2 250311Z 08007KT 11/00 A3009 RMK A01 T01090002  RH  048%=      5-min Rain = 0
KCR2 250312Z 08007KT 11/00 A3009 RMK A01 T01110002  RH  047%=      5-min Rain = 0
KCR2 250313Z 09007KT 11/00 A3009 RMK A01 T01120002  RH  047%=      5-min Rain = 0
KCR2 250314Z 08007KT 11/00 A3009 RMK A01 T01130002  RH  046%=      5-min Rain = 0
KCR2 250315Z 08008KT 12/00 A3009 RMK A01 T01150002  RH  046%=      5-min Rain = 0
KCR2 250316Z 08008KT 12/00 A3009 RMK A01 T01160002  RH  045%=      5-min Rain = 0
KCR2 250317Z 08008KT 12/00 A3009 RMK A01 T01160002  RH  045%=      5-min Rain = 0
KCR2 250318Z 08008KT 12/00 A3009 RMK A01 T01170001  RH  045%=      5-min Rain = 0
KCR2 250319Z 08008KT 12/00 A3009 RMK A01 T01180001  RH  044%=      5-min Rain = 0
KCR2 250320Z 09008KT 12/00 A3009 RMK A01 T01190000  RH  044%=      5-min Rain = 0
KCR2 250321Z 09009KT 12/00 A3009 RMK A01 T01200000  RH  044%=      5-min Rain = 0
KCR2 250322Z 08008KT 12/00 A3009 RMK A01 T012100-0  RH  043%=      5-min Rain = 0
KCR2 250323Z 09008KT 12/00 A3009 RMK A01 T012100-0  RH  043%=      5-min Rain = 0
KCR2 250324Z 08008KT 12/00 A3009 RMK A01 T01210000  RH  043%=      5-min Rain = 0
KCR2 250325Z 09008KT 12/00 A3009 RMK A01 T01200000  RH  043%=      5-min Rain = 0
KCR2 250326Z 08008KT 12/00 A3009 RMK A01 T01200000  RH  044%=      5-min Rain = 0
KCR2 250327Z 08008KT 12/00 A3009 RMK A01 T012000-0  RH  044%=      5-min Rain = 0
KCR2 250328Z 08008KT 12/00 A3009 RMK A01 T012000-0  RH  044%=      5-min Rain = 0
KCR2 250329Z 09009KT 12/M00 A3009 RMK A01 T01201001  RH  043%=      5-min Rain = 0
KCR2 250330Z 09009KT 12/M00 A3009 RMK A01 T01201001  RH  043%=      5-min Rain = 0
KCR2 250331Z 09008KT 12/M00 A3009 RMK A01 T01201001  RH  043%=      5-min Rain = 0
KCR2 250332Z 09008KT 12/M00 A3009 RMK A01 T01201001  RH  043%=      5-min Rain = 0
KCR2 250333Z 09009KT 12/M00 A3009 RMK A01 T01191001  RH  043%=      5-min Rain = 0
KCR2 250334Z 09009KT 12/M00 A3009 RMK A01 T01191001  RH  043%=      5-min Rain = 0
KCR2 250335Z 09009KT 12/M00 A3009 RMK A01 T01191001  RH  043%=      5-min Rain = 0
KCR2 250336Z 09009KT 12/M00 A3009 RMK A01 T01191001  RH  043%=      5-min Rain = 0
KCR2 250337Z 09009KT 12/M00 A3009 RMK A01 T01191001  RH  044%=      5-min Rain = 0
KCR2 250338Z 09009KT 12/M00 A3009 RMK A01 T01181001  RH  044%=      5-min Rain = 0
KCR2 250339Z 09008KT 12/M00 A3009 RMK A01 T01181001  RH  044%=      5-min Rain = 0
KCR2 250340Z 09009KT 12/M00 A3009 RMK A01 T01171001  RH  044%=      5-min Rain = 0
KCR2 250341Z 09008KT 12/M00 A3009 RMK A01 T01171001  RH  044%=      5-min Rain = 0
KCR2 250342Z 09009KT 12/M00 A3009 RMK A01 T01171001  RH  044%=      5-min Rain = 0
KCR2 250343Z 09009KT 12/M00 A3009 RMK A01 T01161001  RH  045%=      5-min Rain = 0
KCR2 250344Z 09009KT 12/00 A301 RMK A01 T011600-0  RH  045%=      5-min Rain = 0
KCR2 250345Z 08009KT 12/M00 A301 RMK A01 T01151001  RH  045%=      5-min Rain = 0
KCR2 250346Z 09009KT 12/M00 A301 RMK A01 T01161001  RH  045%=      5-min Rain = 0
KCR2 250347Z 08008KT 12/M00 A301 RMK A01 T01151001  RH  045%=      5-min Rain = 0
KCR2 250348Z 08009KT 11/M00 A301 RMK A01 T01141001  RH  045%=      5-min Rain = 0
KCR2 250349Z 08008KT 11/00 A301 RMK A01 T011400-0  RH  045%=      5-min Rain = 0
KCR2 250350Z 08008KT 11/M00 A301 RMK A01 T01141001  RH  045%=      5-min Rain = 0
KCR2 250351Z 08008KT 11/00 A301 RMK A01 T011300-0  RH  045%=      5-min Rain = 0
KCR2 250352Z 08008KT 11/00 A301 RMK A01 T01130000  RH  046%=      5-min Rain = 0
KCR2 250353Z 08008KT 11/00 A301 RMK A01 T011300-0  RH  046%=      5-min Rain = 0
KCR2 250354Z 08008KT 11/00 A301 RMK A01 T01130000  RH  046%=      5-min Rain = 0
KCR2 250355Z 08009KT 11/00 A301 RMK A01 T01140000  RH  046%=      5-min Rain = 0
KCR2 250356Z 08009KT 11/00 A301 RMK A01 T01130000  RH  046%=      5-min Rain = 0
KCR2 250357Z 08009KT 11/00 A301 RMK A01 T01140000  RH  045%=      5-min Rain = 0
KCR2 250358Z 08009KT 11/00 A3011 RMK A01 T011400-0  RH  045%=      5-min Rain = 0
KCR2 250359Z 08009KT 12/00 A3011 RMK A01 T01150000  RH  045%=      5-min Rain = 0
KCR2 250400Z 08009KT 12/00 A3011 RMK A01 T01150001  RH  045%=      5-min Rain = 0
KCR2 250401Z 08008KT 12/00 A3011 RMK A01 T01150001  RH  045%=      5-min Rain = 0
KCR2 250402Z 08009KT 11/00 A3011 RMK A01 T01140001  RH  046%=      5-min Rain = 0
KCR2 250403Z 08010KT 11/00 A3011 RMK A01 T01140001  RH  045%=      5-min Rain = 0
KCR2 250404Z 08010KT 12/00 A3011 RMK A01 T01150001  RH  045%=      5-min Rain = 0
KCR2 250405Z 08010KT 12/00 A3011 RMK A01 T01150001  RH  045%=      5-min Rain = 0
KCR2 250406Z 08009KT 12/00 A3011 RMK A01 T01150001  RH  045%=      5-min Rain = 0
KCR2 250407Z 08009KT 12/00 A3011 RMK A01 T01160001  RH  045%=      5-min Rain = 0
KCR2 250408Z 08009KT 12/00 A3012 RMK A01 T01150001  RH  045%=      5-min Rain = 0
KCR2 250409Z 07009KT 12/00 A3012 RMK A01 T01150001  RH  045%=      5-min Rain = 0
KCR2 250410Z 07009KT 12/00 A3012 RMK A01 T01150001  RH  045%=      5-min Rain = 0
KCR2 250411Z 07009KT 12/00 A3012 RMK A01 T01150001  RH  045%=      5-min Rain = 0
KCR2 250412Z 07009KT 12/00 A3012 RMK A01 T01150001  RH  045%=      5-min Rain = 0
KCR2 250413Z 08009KT 12/00 A3012 RMK A01 T01150001  RH  045%=      5-min Rain = 0
KCR2 250414Z 08010KT 12/00 A3012 RMK A01 T01150001  RH  045%=      5-min Rain = 0
KCR2 250415Z 08009KT 12/00 A3012 RMK A01 T01160001  RH  045%=      5-min Rain = 0
KCR2 250416Z 08010KT 12/00 A3012 RMK A01 T01150001  RH  045%=      5-min Rain = 0
KCR2 250417Z 08010KT 12/00 A3012 RMK A01 T01150001  RH  045%=      5-min Rain = 0
KCR2 250418Z 08010KT 12/00 A3012 RMK A01 T01150001  RH  045%=      5-min Rain = 0
KCR2 250419Z 08009KT 12/00 A3012 RMK A01 T01150001  RH  046%=      5-min Rain = 0
KCR2 250420Z 08010KT 11/00 A3012 RMK A01 T01140001  RH  046%=      5-min Rain = 0
KCR2 250421Z 08011KT 11/00 A3012 RMK A01 T01140001  RH  046%=      5-min Rain = 0
KCR2 250422Z 08011KT 11/00 A3012 RMK A01 T01140001  RH  046%=      5-min Rain = 0
KCR2 250423Z 08010KT 12/00 A3012 RMK A01 T01150001  RH  046%=      5-min Rain = 0
KCR2 250424Z 08011KT 11/00 A3012 RMK A01 T01140001  RH  046%=      5-min Rain = 0
KCR2 250425Z 08011KT 12/00 A3012 RMK A01 T01150001  RH  046%=      5-min Rain = 0
KCR2 250426Z 08011KT 11/00 A3012 RMK A01 T01140001  RH  046%=      5-min Rain = 0
KCR2 250427Z 08011KT 11/00 A3012 RMK A01 T01140001  RH  046%=      5-min Rain = 0
KCR2 250428Z 08011KT 11/00 A3012 RMK A01 T01140001  RH  046%=      5-min Rain = 0
KCR2 250429Z 08011KT 11/00 A3012 RMK A01 T01140001  RH  046%=      5-min Rain = 0
KCR2 250430Z 08011KT 11/00 A3012 RMK A01 T01140001  RH  046%=      5-min Rain = 0
KCR2 250431Z 08009KT 11/00 A3012 RMK A01 T01140001  RH  046%=      5-min Rain = 0
KCR2 250432Z 07010KT 11/00 A3012 RMK A01 T01130001  RH  046%=      5-min Rain = 0
KCR2 250433Z 07010KT 11/00 A3012 RMK A01 T01120001  RH  046%=      5-min Rain = 0
KCR2 250434Z 07010KT 11/00 A3012 RMK A01 T01120001  RH  046%=      5-min Rain = 0
KCR2 250435Z 07011KT 11/00 A3013 RMK A01 T01110001  RH  047%=      5-min Rain = 0
KCR2 250436Z 07010KT 11/00 A3013 RMK A01 T01110001  RH  047%=      5-min Rain = 0
KCR2 250437Z 07010KT 11/00 A3013 RMK A01 T01100001  RH  047%=      5-min Rain = 0
KCR2 250438Z 08010KT 11/00 A3013 RMK A01 T01100001  RH  047%=      5-min Rain = 0
KCR2 250439Z 08010KT 11/00 A3013 RMK A01 T01100001  RH  047%=      5-min Rain = 0
KCR2 250440Z 08011KT 11/00 A3013 RMK A01 T01090001  RH  047%=      5-min Rain = 0
KCR2 250441Z 08011KT 11/00 A3013 RMK A01 T01090001  RH  047%=      5-min Rain = 0
KCR2 250442Z 08010KT 11/00 A3013 RMK A01 T01090001  RH  047%=      5-min Rain = 0
KCR2 250443Z 08011KT 11/00 A3013 RMK A01 T01090001  RH  047%=      5-min Rain = 0
KCR2 250444Z 08011KT 11/00 A3013 RMK A01 T01090001  RH  047%=      5-min Rain = 0
KCR2 250445Z 08011KT 11/00 A3013 RMK A01 T01090001  RH  047%=      5-min Rain = 0
KCR2 250446Z 08011KT 11/00 A3013 RMK A01 T01080001  RH  048%=      5-min Rain = 0
KCR2 250447Z 08011KT 11/00 A3012 RMK A01 T01080001  RH  048%=      5-min Rain = 0
KCR2 250448Z 08011KT 11/00 A3012 RMK A01 T01080001  RH  048%=      5-min Rain = 0
KCR2 250449Z 08011KT 11/00 A3013 RMK A01 T01080001  RH  048%=      5-min Rain = 0
KCR2 250450Z 08011KT 11/00 A3012 RMK A01 T01070001  RH  048%=      5-min Rain = 0
KCR2 250451Z 08010KT 11/00 A3012 RMK A01 T01070001  RH  048%=      5-min Rain = 0
KCR2 250452Z 08010KT 11/00 A3012 RMK A01 T01060001  RH  048%=      5-min Rain = 0
KCR2 250453Z 08010KT 11/00 A3012 RMK A01 T01060001  RH  048%=      5-min Rain = 0
KCR2 250454Z 08010KT 11/00 A3012 RMK A01 T01060001  RH  048%=      5-min Rain = 0
KCR2 250455Z 08010KT 11/00 A3012 RMK A01 T01060001  RH  048%=      5-min Rain = 0
KCR2 250456Z 08010KT 11/00 A3012 RMK A01 T01050001  RH  049%=      5-min Rain = 0
KCR2 250457Z 08011KT 10/00 A3012 RMK A01 T01040001  RH  049%=      5-min Rain = 0
KCR2 250458Z 08010KT 11/00 A3012 RMK A01 T01050001  RH  049%=      5-min Rain = 0
KCR2 250459Z 08010KT 11/00 A3012 RMK A01 T01050001  RH  049%=      5-min Rain = 0
KCR2 250500Z 08011KT 10/00 A3012 RMK A01 T01040001  RH  049%=      5-min Rain = 0
KCR2 250501Z 08010KT 11/00 A3012 RMK A01 T01050001  RH  049%=      5-min Rain = 0
KCR2 250502Z 08010KT 11/00 A3012 RMK A01 T01050001  RH  049%=      5-min Rain = 0
KCR2 250503Z 08010KT 10/00 A3012 RMK A01 T01040002  RH  049%=      5-min Rain = 0
KCR2 250504Z 08010KT 10/00 A3012 RMK A01 T01030002  RH  049%=      5-min Rain = 0
KCR2 250505Z 08011KT 10/00 A3012 RMK A01 T01030001  RH  049%=      5-min Rain = 0
KCR2 250506Z 08010KT 10/00 A3012 RMK A01 T01040002  RH  049%=      5-min Rain = 0
KCR2 250507Z 07010KT 10/00 A3012 RMK A01 T01040001  RH  049%=      5-min Rain = 0
KCR2 250508Z 07010KT 10/00 A3012 RMK A01 T01040001  RH  049%=      5-min Rain = 0
KCR2 250509Z 08011KT 10/00 A3012 RMK A01 T01040002  RH  049%=      5-min Rain = 0
KCR2 250510Z 08010KT 11/00 A3012 RMK A01 T01050002  RH  049%=      5-min Rain = 0
KCR2 250511Z 07010KT 11/00 A3012 RMK A01 T01050002  RH  049%=      5-min Rain = 0
KCR2 250512Z 08012KT 11/00 A3012 RMK A01 T01050002  RH  049%=      5-min Rain = 0
KCR2 250513Z 08011KT 10/00 A3012 RMK A01 T01040002  RH  049%=      5-min Rain = 0
KCR2 250514Z 08011KT 11/00 A3012 RMK A01 T01050002  RH  049%=      5-min Rain = 0
KCR2 250515Z 08011KT 11/00 A3012 RMK A01 T01050002  RH  049%=      5-min Rain = 0
KCR2 250516Z 08011KT 11/00 A3012 RMK A01 T01050002  RH  049%=      5-min Rain = 0
KCR2 250517Z 08011KT 11/00 A3012 RMK A01 T01050003  RH  049%=      5-min Rain = 0
KCR2 250518Z 08012KT 11/00 A3012 RMK A01 T01050003  RH  049%=      5-min Rain = 0
KCR2 250519Z 08011KT 11/00 A3012 RMK A01 T01050002  RH  049%=      5-min Rain = 0
KCR2 250520Z 08010KT 11/00 A3012 RMK A01 T01050003  RH  049%=      5-min Rain = 0
KCR2 250521Z 08011KT 11/00 A3012 RMK A01 T01050003  RH  049%=      5-min Rain = 0
KCR2 250522Z 08010KT 11/00 A3012 RMK A01 T01050003  RH  049%=      5-min Rain = 0
KCR2 250523Z 08011KT 10/00 A3012 RMK A01 T01040003  RH  049%=      5-min Rain = 0
KCR2 250524Z 09011KT 10/00 A3012 RMK A01 T01040003  RH  049%=      5-min Rain = 0
KCR2 250525Z 09011KT 10/00 A3012 RMK A01 T01040003  RH  049%=      5-min Rain = 0
KCR2 250526Z 09011KT 10/00 A3012 RMK A01 T01040003  RH  049%=      5-min Rain = 0
KCR2 250527Z 09011KT 10/00 A3012 RMK A01 T01040002  RH  049%=      5-min Rain = 0
KCR2 250528Z 09011KT 10/00 A3012 RMK A01 T01040002  RH  049%=      5-min Rain = 0
KCR2 250529Z 09011KT 10/00 A3012 RMK A01 T01040002  RH  049%=      5-min Rain = 0
KCR2 250530Z 09011KT 10/00 A3012 RMK A01 T01040002  RH  049%=      5-min Rain = 0
KCR2 250531Z 09011KT 10/00 A3012 RMK A01 T01040002  RH  049%=      5-min Rain = 0
KCR2 250532Z 09011KT 11/00 A3012 RMK A01 T01050002  RH  049%=      5-min Rain = 0
KCR2 250533Z 10011KT 10/00 A3012 RMK A01 T01040003  RH  049%=      5-min Rain = 0
KCR2 250534Z 10011KT 10/00 A3012 RMK A01 T01040003  RH  049%=      5-min Rain = 0
KCR2 250535Z 09012KT 10/00 A3012 RMK A01 T01030002  RH  050%=      5-min Rain = 0
KCR2 250536Z 09013KT 10/00 A3012 RMK A01 T01030002  RH  049%=      5-min Rain = 0
KCR2 250537Z 09011KT 10/00 A3012 RMK A01 T01040002  RH  049%=      5-min Rain = 0
KCR2 250538Z 10011KT 10/00 A3012 RMK A01 T01040002  RH  049%=      5-min Rain = 0
KCR2 250539Z 09011KT 10/00 A3012 RMK A01 T01030003  RH  050%=      5-min Rain = 0
KCR2 250540Z 09012KT 10/00 A3012 RMK A01 T01040003  RH  050%=      5-min Rain = 0
KCR2 250541Z 09012KT 10/00 A3012 RMK A01 T01030002  RH  049%=      5-min Rain = 0
KCR2 250542Z 09012KT 10/00 A3012 RMK A01 T01030002  RH  049%=      5-min Rain = 0
KCR2 250543Z 09011KT 10/00 A3012 RMK A01 T01040002  RH  049%=      5-min Rain = 0
KCR2 250544Z 09011KT 10/00 A3012 RMK A01 T01040002  RH  049%=      5-min Rain = 0
KCR2 250545Z 09011KT 10/00 A3012 RMK A01 T01040002  RH  049%=      5-min Rain = 0
KCR2 250546Z 09012KT 10/00 A3012 RMK A01 T01030002  RH  049%=      5-min Rain = 0
KCR2 250547Z 09012KT 10/00 A3012 RMK A01 T01030002  RH  049%=      5-min Rain = 0
KCR2 250548Z 09011KT 10/00 A3012 RMK A01 T01030002  RH  049%=      5-min Rain = 0
KCR2 250549Z 09012KT 10/00 A3012 RMK A01 T01030002  RH  049%=      5-min Rain = 0
KCR2 250550Z 09012KT 10/00 A3012 RMK A01 T01030002  RH  049%=      5-min Rain = 0
KCR2 250551Z 09011KT 10/00 A3012 RMK A01 T01040002  RH  049%=      5-min Rain = 0
KCR2 250552Z 09012KT 10/00 A3012 RMK A01 T01030002  RH  050%=      5-min Rain = 0
KCR2 250553Z 10011KT 10/00 A3012 RMK A01 T01040002  RH  049%=      5-min Rain = 0
KCR2 250554Z 10012KT 10/00 A3012 RMK A01 T01030002  RH  049%=      5-min Rain = 0
KCR2 250555Z 09012KT 10/00 A3012 RMK A01 T01040002  RH  049%=      5-min Rain = 0
KCR2 250556Z 09011KT 10/00 A3012 RMK A01 T01040002  RH  049%=      5-min Rain = 0
KCR2 250557Z 09013KT 10/00 A3012 RMK A01 T01040002  RH  049%=      5-min Rain = 0
KCR2 250558Z 09012KT 11/00 A3012 RMK A01 T01050002  RH  049%=      5-min Rain = 0
KCR2 250559Z 09012KT 11/00 A3012 RMK A01 T01060002  RH  049%=      5-min Rain = 0

Page generated in 0.0773 seconds.